<?xml version="1.0" encoding="utf-8"?>
<gpx xmlns:xsi="http://www.w3.org/2001/XMLSchema-instance" xmlns:xsd="http://www.w3.org/2001/XMLSchema" version="1.1" creator="Shapelink.com" xmlns="http://www.topografix.com/GPX/1/1" xmlns:gpxtpx="http://www.garmin.com/xmlschemas/TrackPointExtension/v1">
  <metadata>
    <name>Gåing 1.50 km, 2013-04-10</name>
    <desc></desc>
    <author><name>Mikael Blom</name></author> 
    <time>2013-04-10T17:54:32Z</time>
  </metadata>
  <trk>
    <name>Gåing 1.50 km, 2013-04-10</name>
    <trkseg>
      <trkpt lat="59.9789557" lon="17.7393956">
        <ele>39.0707</ele>
        <time>2013-04-10T17:54:32Z</time>
      </trkpt>
      <trkpt lat="59.978946" lon="17.7393748">
        <ele>39.0707</ele>
        <time>2013-04-10T17:54:33Z</time>
      </trkpt>
      <trkpt lat="59.9789375" lon="17.7393527">
        <ele>39.0707</ele>
        <time>2013-04-10T17:54:34Z</time>
      </trkpt>
      <trkpt lat="59.978933" lon="17.7393254">
        <ele>39.0707</ele>
        <time>2013-04-10T17:54:35Z</time>
      </trkpt>
      <trkpt lat="59.9789356" lon="17.7392945">
        <ele>38.5901</ele>
        <time>2013-04-10T17:54:36Z</time>
      </trkpt>
      <trkpt lat="59.978947" lon="17.7392721">
        <ele>38.5901</ele>
        <time>2013-04-10T17:54:37Z</time>
      </trkpt>
      <trkpt lat="59.9789619" lon="17.7392609">
        <ele>39.0707</ele>
        <time>2013-04-10T17:54:38Z</time>
      </trkpt>
      <trkpt lat="59.9789765" lon="17.7392543">
        <ele>39.0707</ele>
        <time>2013-04-10T17:54:39Z</time>
      </trkpt>
      <trkpt lat="59.9789877" lon="17.7392455">
        <ele>39.0707</ele>
        <time>2013-04-10T17:54:40Z</time>
      </trkpt>
      <trkpt lat="59.9789978" lon="17.739231">
        <ele>39.0707</ele>
        <time>2013-04-10T17:54:41Z</time>
      </trkpt>
      <trkpt lat="59.979009" lon="17.7392144">
        <ele>38.5901</ele>
        <time>2013-04-10T17:54:42Z</time>
      </trkpt>
      <trkpt lat="59.9790184" lon="17.7391999">
        <ele>38.5901</ele>
        <time>2013-04-10T17:54:43Z</time>
      </trkpt>
      <trkpt lat="59.9790299" lon="17.7391885">
        <ele>38.5901</ele>
        <time>2013-04-10T17:54:44Z</time>
      </trkpt>
      <trkpt lat="59.9790439" lon="17.7391798">
        <ele>38.5901</ele>
        <time>2013-04-10T17:54:45Z</time>
      </trkpt>
      <trkpt lat="59.9790574" lon="17.7391702">
        <ele>38.5901</ele>
        <time>2013-04-10T17:54:46Z</time>
      </trkpt>
      <trkpt lat="59.9790702" lon="17.7391588">
        <ele>38.5901</ele>
        <time>2013-04-10T17:54:47Z</time>
      </trkpt>
      <trkpt lat="59.9790831" lon="17.739148">
        <ele>38.5901</ele>
        <time>2013-04-10T17:54:48Z</time>
      </trkpt>
      <trkpt lat="59.979096" lon="17.7391382">
        <ele>38.5901</ele>
        <time>2013-04-10T17:54:49Z</time>
      </trkpt>
      <trkpt lat="59.9791106" lon="17.7391281">
        <ele>38.5901</ele>
        <time>2013-04-10T17:54:50Z</time>
      </trkpt>
      <trkpt lat="59.9791247" lon="17.7391176">
        <ele>38.5901</ele>
        <time>2013-04-10T17:54:51Z</time>
      </trkpt>
      <trkpt lat="59.9791391" lon="17.7391078">
        <ele>38.5901</ele>
        <time>2013-04-10T17:54:52Z</time>
      </trkpt>
      <trkpt lat="59.979154" lon="17.7390979">
        <ele>38.5901</ele>
        <time>2013-04-10T17:54:53Z</time>
      </trkpt>
      <trkpt lat="59.9791696" lon="17.739088">
        <ele>39.0707</ele>
        <time>2013-04-10T17:54:54Z</time>
      </trkpt>
      <trkpt lat="59.9791826" lon="17.7390777">
        <ele>39.0707</ele>
        <time>2013-04-10T17:54:55Z</time>
      </trkpt>
      <trkpt lat="59.9791956" lon="17.7390677">
        <ele>39.0707</ele>
        <time>2013-04-10T17:54:56Z</time>
      </trkpt>
      <trkpt lat="59.9792097" lon="17.7390601">
        <ele>39.0707</ele>
        <time>2013-04-10T17:54:57Z</time>
      </trkpt>
      <trkpt lat="59.9792242" lon="17.7390516">
        <ele>39.5513</ele>
        <time>2013-04-10T17:54:58Z</time>
      </trkpt>
      <trkpt lat="59.9792386" lon="17.7390424">
        <ele>39.5513</ele>
        <time>2013-04-10T17:54:59Z</time>
      </trkpt>
      <trkpt lat="59.9792527" lon="17.7390342">
        <ele>39.5513</ele>
        <time>2013-04-10T17:55:00Z</time>
      </trkpt>
      <trkpt lat="59.979267" lon="17.7390253">
        <ele>40.0321</ele>
        <time>2013-04-10T17:55:01Z</time>
      </trkpt>
      <trkpt lat="59.9792811" lon="17.7390161">
        <ele>40.0321</ele>
        <time>2013-04-10T17:55:02Z</time>
      </trkpt>
      <trkpt lat="59.979295" lon="17.7390078">
        <ele>40.0321</ele>
        <time>2013-04-10T17:55:03Z</time>
      </trkpt>
      <trkpt lat="59.9793085" lon="17.7389987">
        <ele>40.0321</ele>
        <time>2013-04-10T17:55:04Z</time>
      </trkpt>
      <trkpt lat="59.9793228" lon="17.7389881">
        <ele>40.0321</ele>
        <time>2013-04-10T17:55:05Z</time>
      </trkpt>
      <trkpt lat="59.9793369" lon="17.7389751">
        <ele>40.0321</ele>
        <time>2013-04-10T17:55:06Z</time>
      </trkpt>
      <trkpt lat="59.9793515" lon="17.7389674">
        <ele>40.0321</ele>
        <time>2013-04-10T17:55:07Z</time>
      </trkpt>
      <trkpt lat="59.9793671" lon="17.7389591">
        <ele>40.5128</ele>
        <time>2013-04-10T17:55:08Z</time>
      </trkpt>
      <trkpt lat="59.9793846" lon="17.7389538">
        <ele>40.5128</ele>
        <time>2013-04-10T17:55:09Z</time>
      </trkpt>
      <trkpt lat="59.9793997" lon="17.7389477">
        <ele>40.5128</ele>
        <time>2013-04-10T17:55:10Z</time>
      </trkpt>
      <trkpt lat="59.9794127" lon="17.738941">
        <ele>40.5128</ele>
        <time>2013-04-10T17:55:11Z</time>
      </trkpt>
      <trkpt lat="59.9794247" lon="17.7389367">
        <ele>40.5128</ele>
        <time>2013-04-10T17:55:12Z</time>
      </trkpt>
      <trkpt lat="59.9794374" lon="17.7389271">
        <ele>40.5128</ele>
        <time>2013-04-10T17:55:13Z</time>
      </trkpt>
      <trkpt lat="59.9794502" lon="17.7389176">
        <ele>40.5128</ele>
        <time>2013-04-10T17:55:14Z</time>
      </trkpt>
      <trkpt lat="59.9794619" lon="17.7389133">
        <ele>40.5128</ele>
        <time>2013-04-10T17:55:15Z</time>
      </trkpt>
      <trkpt lat="59.9794741" lon="17.7389084">
        <ele>40.5128</ele>
        <time>2013-04-10T17:55:16Z</time>
      </trkpt>
      <trkpt lat="59.9794861" lon="17.7389017">
        <ele>40.0321</ele>
        <time>2013-04-10T17:55:17Z</time>
      </trkpt>
      <trkpt lat="59.9794981" lon="17.7388965">
        <ele>40.5128</ele>
        <time>2013-04-10T17:55:18Z</time>
      </trkpt>
      <trkpt lat="59.9795119" lon="17.7388897">
        <ele>40.0321</ele>
        <time>2013-04-10T17:55:19Z</time>
      </trkpt>
      <trkpt lat="59.9795233" lon="17.7388853">
        <ele>40.0321</ele>
        <time>2013-04-10T17:55:20Z</time>
      </trkpt>
      <trkpt lat="59.9795324" lon="17.7388839">
        <ele>40.0321</ele>
        <time>2013-04-10T17:55:21Z</time>
      </trkpt>
      <trkpt lat="59.9795419" lon="17.7388818">
        <ele>39.5513</ele>
        <time>2013-04-10T17:55:22Z</time>
      </trkpt>
      <trkpt lat="59.9795547" lon="17.7388763">
        <ele>39.5513</ele>
        <time>2013-04-10T17:55:23Z</time>
      </trkpt>
      <trkpt lat="59.9795669" lon="17.7388739">
        <ele>39.5513</ele>
        <time>2013-04-10T17:55:24Z</time>
      </trkpt>
      <trkpt lat="59.9795788" lon="17.7388726">
        <ele>39.5513</ele>
        <time>2013-04-10T17:55:25Z</time>
      </trkpt>
      <trkpt lat="59.9795919" lon="17.7388701">
        <ele>39.5513</ele>
        <time>2013-04-10T17:55:26Z</time>
      </trkpt>
      <trkpt lat="59.9796041" lon="17.7388658">
        <ele>39.0707</ele>
        <time>2013-04-10T17:55:27Z</time>
      </trkpt>
      <trkpt lat="59.9796137" lon="17.7388584">
        <ele>39.0707</ele>
        <time>2013-04-10T17:55:28Z</time>
      </trkpt>
      <trkpt lat="59.9796248" lon="17.7388527">
        <ele>39.0707</ele>
        <time>2013-04-10T17:55:29Z</time>
      </trkpt>
      <trkpt lat="59.979638" lon="17.7388457">
        <ele>39.0707</ele>
        <time>2013-04-10T17:55:30Z</time>
      </trkpt>
      <trkpt lat="59.9796504" lon="17.7388404">
        <ele>39.0707</ele>
        <time>2013-04-10T17:55:31Z</time>
      </trkpt>
      <trkpt lat="59.9796649" lon="17.7388353">
        <ele>39.5513</ele>
        <time>2013-04-10T17:55:32Z</time>
      </trkpt>
      <trkpt lat="59.9796792" lon="17.7388354">
        <ele>40.0321</ele>
        <time>2013-04-10T17:55:33Z</time>
      </trkpt>
      <trkpt lat="59.9796937" lon="17.7388288">
        <ele>40.0321</ele>
        <time>2013-04-10T17:55:34Z</time>
      </trkpt>
      <trkpt lat="59.9797079" lon="17.7388196">
        <ele>39.5513</ele>
        <time>2013-04-10T17:55:35Z</time>
      </trkpt>
      <trkpt lat="59.9797233" lon="17.7388088">
        <ele>39.5513</ele>
        <time>2013-04-10T17:55:36Z</time>
      </trkpt>
      <trkpt lat="59.9797349" lon="17.7388011">
        <ele>39.5513</ele>
        <time>2013-04-10T17:55:37Z</time>
      </trkpt>
      <trkpt lat="59.9797476" lon="17.7387969">
        <ele>39.5513</ele>
        <time>2013-04-10T17:55:38Z</time>
      </trkpt>
      <trkpt lat="59.9797626" lon="17.7387986">
        <ele>39.5513</ele>
        <time>2013-04-10T17:55:39Z</time>
      </trkpt>
      <trkpt lat="59.9797764" lon="17.7387988">
        <ele>39.5513</ele>
        <time>2013-04-10T17:55:40Z</time>
      </trkpt>
      <trkpt lat="59.9797893" lon="17.7387981">
        <ele>39.5513</ele>
        <time>2013-04-10T17:55:41Z</time>
      </trkpt>
      <trkpt lat="59.9798044" lon="17.7387853">
        <ele>40.0321</ele>
        <time>2013-04-10T17:55:42Z</time>
      </trkpt>
      <trkpt lat="59.9798204" lon="17.7387739">
        <ele>40.5128</ele>
        <time>2013-04-10T17:55:43Z</time>
      </trkpt>
      <trkpt lat="59.9798372" lon="17.7387752">
        <ele>40.0321</ele>
        <time>2013-04-10T17:55:44Z</time>
      </trkpt>
      <trkpt lat="59.9798551" lon="17.738772">
        <ele>40.0321</ele>
        <time>2013-04-10T17:55:45Z</time>
      </trkpt>
      <trkpt lat="59.979875" lon="17.7387715">
        <ele>40.0321</ele>
        <time>2013-04-10T17:55:46Z</time>
      </trkpt>
      <trkpt lat="59.9798896" lon="17.7387689">
        <ele>39.5513</ele>
        <time>2013-04-10T17:55:47Z</time>
      </trkpt>
      <trkpt lat="59.9799063" lon="17.738766">
        <ele>39.5513</ele>
        <time>2013-04-10T17:55:48Z</time>
      </trkpt>
      <trkpt lat="59.979925" lon="17.7387627">
        <ele>39.5513</ele>
        <time>2013-04-10T17:55:49Z</time>
      </trkpt>
      <trkpt lat="59.9799422" lon="17.738756">
        <ele>39.0707</ele>
        <time>2013-04-10T17:55:50Z</time>
      </trkpt>
      <trkpt lat="59.9799597" lon="17.7387519">
        <ele>39.5513</ele>
        <time>2013-04-10T17:55:51Z</time>
      </trkpt>
      <trkpt lat="59.9799765" lon="17.7387475">
        <ele>39.5513</ele>
        <time>2013-04-10T17:55:52Z</time>
      </trkpt>
      <trkpt lat="59.9799948" lon="17.7387384">
        <ele>40.0321</ele>
        <time>2013-04-10T17:55:53Z</time>
      </trkpt>
      <trkpt lat="59.9800126" lon="17.7387325">
        <ele>39.5513</ele>
        <time>2013-04-10T17:55:54Z</time>
      </trkpt>
      <trkpt lat="59.9800328" lon="17.7387326">
        <ele>39.0707</ele>
        <time>2013-04-10T17:55:55Z</time>
      </trkpt>
      <trkpt lat="59.9800524" lon="17.7387374">
        <ele>39.0707</ele>
        <time>2013-04-10T17:55:56Z</time>
      </trkpt>
      <trkpt lat="59.9800682" lon="17.7387409">
        <ele>39.5513</ele>
        <time>2013-04-10T17:55:57Z</time>
      </trkpt>
      <trkpt lat="59.9800848" lon="17.7387452">
        <ele>40.0321</ele>
        <time>2013-04-10T17:55:58Z</time>
      </trkpt>
      <trkpt lat="59.980099" lon="17.7387499">
        <ele>40.0321</ele>
        <time>2013-04-10T17:55:59Z</time>
      </trkpt>
      <trkpt lat="59.9801151" lon="17.7387525">
        <ele>40.0321</ele>
        <time>2013-04-10T17:56:00Z</time>
      </trkpt>
      <trkpt lat="59.9801319" lon="17.7387537">
        <ele>40.5128</ele>
        <time>2013-04-10T17:56:01Z</time>
      </trkpt>
      <trkpt lat="59.980145" lon="17.7387477">
        <ele>40.5128</ele>
        <time>2013-04-10T17:56:02Z</time>
      </trkpt>
      <trkpt lat="59.9801596" lon="17.7387513">
        <ele>40.9934</ele>
        <time>2013-04-10T17:56:03Z</time>
      </trkpt>
      <trkpt lat="59.98017" lon="17.7387543">
        <ele>40.5128</ele>
        <time>2013-04-10T17:56:04Z</time>
      </trkpt>
      <trkpt lat="59.9801819" lon="17.7387514">
        <ele>40.5128</ele>
        <time>2013-04-10T17:56:05Z</time>
      </trkpt>
      <trkpt lat="59.9801949" lon="17.7387532">
        <ele>40.9934</ele>
        <time>2013-04-10T17:56:06Z</time>
      </trkpt>
      <trkpt lat="59.9802093" lon="17.7387586">
        <ele>41.474</ele>
        <time>2013-04-10T17:56:07Z</time>
      </trkpt>
      <trkpt lat="59.980228" lon="17.7387584">
        <ele>41.9547</ele>
        <time>2013-04-10T17:56:08Z</time>
      </trkpt>
      <trkpt lat="59.9802461" lon="17.7387446">
        <ele>42.4354</ele>
        <time>2013-04-10T17:56:09Z</time>
      </trkpt>
      <trkpt lat="59.9802606" lon="17.7387353">
        <ele>42.916</ele>
        <time>2013-04-10T17:56:10Z</time>
      </trkpt>
      <trkpt lat="59.9802739" lon="17.7387264">
        <ele>43.3966</ele>
        <time>2013-04-10T17:56:11Z</time>
      </trkpt>
      <trkpt lat="59.98029" lon="17.7387253">
        <ele>44.358</ele>
        <time>2013-04-10T17:56:12Z</time>
      </trkpt>
      <trkpt lat="59.9803053" lon="17.7387162">
        <ele>44.8386</ele>
        <time>2013-04-10T17:56:13Z</time>
      </trkpt>
      <trkpt lat="59.9803188" lon="17.7387105">
        <ele>44.8386</ele>
        <time>2013-04-10T17:56:14Z</time>
      </trkpt>
      <trkpt lat="59.9803335" lon="17.7387089">
        <ele>45.7999</ele>
        <time>2013-04-10T17:56:15Z</time>
      </trkpt>
      <trkpt lat="59.9803483" lon="17.7387066">
        <ele>46.2806</ele>
        <time>2013-04-10T17:56:16Z</time>
      </trkpt>
      <trkpt lat="59.9803664" lon="17.7387015">
        <ele>46.2806</ele>
        <time>2013-04-10T17:56:17Z</time>
      </trkpt>
      <trkpt lat="59.9803791" lon="17.7386991">
        <ele>46.2806</ele>
        <time>2013-04-10T17:56:18Z</time>
      </trkpt>
      <trkpt lat="59.9803933" lon="17.738703">
        <ele>45.7999</ele>
        <time>2013-04-10T17:56:19Z</time>
      </trkpt>
      <trkpt lat="59.980414" lon="17.7387062">
        <ele>46.2806</ele>
        <time>2013-04-10T17:56:20Z</time>
      </trkpt>
      <trkpt lat="59.9804332" lon="17.7387102">
        <ele>46.2806</ele>
        <time>2013-04-10T17:56:21Z</time>
      </trkpt>
      <trkpt lat="59.9804513" lon="17.738703">
        <ele>46.7612</ele>
        <time>2013-04-10T17:56:22Z</time>
      </trkpt>
      <trkpt lat="59.9804668" lon="17.7386967">
        <ele>46.7612</ele>
        <time>2013-04-10T17:56:23Z</time>
      </trkpt>
      <trkpt lat="59.9804837" lon="17.7386866">
        <ele>46.2806</ele>
        <time>2013-04-10T17:56:24Z</time>
      </trkpt>
      <trkpt lat="59.9804983" lon="17.7386809">
        <ele>46.2806</ele>
        <time>2013-04-10T17:56:25Z</time>
      </trkpt>
      <trkpt lat="59.9805135" lon="17.7386755">
        <ele>45.7999</ele>
        <time>2013-04-10T17:56:26Z</time>
      </trkpt>
      <trkpt lat="59.9805317" lon="17.73866">
        <ele>46.2806</ele>
        <time>2013-04-10T17:56:27Z</time>
      </trkpt>
      <trkpt lat="59.9805476" lon="17.7386503">
        <ele>46.2806</ele>
        <time>2013-04-10T17:56:28Z</time>
      </trkpt>
      <trkpt lat="59.980562" lon="17.7386457">
        <ele>45.7999</ele>
        <time>2013-04-10T17:56:29Z</time>
      </trkpt>
      <trkpt lat="59.9805776" lon="17.738643">
        <ele>45.7999</ele>
        <time>2013-04-10T17:56:30Z</time>
      </trkpt>
      <trkpt lat="59.9805906" lon="17.7386364">
        <ele>45.3192</ele>
        <time>2013-04-10T17:56:31Z</time>
      </trkpt>
      <trkpt lat="59.9806061" lon="17.7386334">
        <ele>45.3192</ele>
        <time>2013-04-10T17:56:32Z</time>
      </trkpt>
      <trkpt lat="59.98062" lon="17.7386279">
        <ele>45.7999</ele>
        <time>2013-04-10T17:56:33Z</time>
      </trkpt>
      <trkpt lat="59.9806327" lon="17.7386234">
        <ele>45.7999</ele>
        <time>2013-04-10T17:56:34Z</time>
      </trkpt>
      <trkpt lat="59.9806486" lon="17.738623">
        <ele>45.7999</ele>
        <time>2013-04-10T17:56:35Z</time>
      </trkpt>
      <trkpt lat="59.980663" lon="17.7386218">
        <ele>45.7999</ele>
        <time>2013-04-10T17:56:36Z</time>
      </trkpt>
      <trkpt lat="59.9806781" lon="17.7386176">
        <ele>46.2806</ele>
        <time>2013-04-10T17:56:37Z</time>
      </trkpt>
      <trkpt lat="59.980691" lon="17.7386074">
        <ele>46.2806</ele>
        <time>2013-04-10T17:56:38Z</time>
      </trkpt>
      <trkpt lat="59.9807042" lon="17.738599">
        <ele>46.7612</ele>
        <time>2013-04-10T17:56:39Z</time>
      </trkpt>
      <trkpt lat="59.9807196" lon="17.7385965">
        <ele>46.2806</ele>
        <time>2013-04-10T17:56:40Z</time>
      </trkpt>
      <trkpt lat="59.9807349" lon="17.7385913">
        <ele>46.2806</ele>
        <time>2013-04-10T17:56:41Z</time>
      </trkpt>
      <trkpt lat="59.9807521" lon="17.7385799">
        <ele>46.2806</ele>
        <time>2013-04-10T17:56:42Z</time>
      </trkpt>
      <trkpt lat="59.9807694" lon="17.738574">
        <ele>46.2806</ele>
        <time>2013-04-10T17:56:43Z</time>
      </trkpt>
      <trkpt lat="59.9807832" lon="17.7385683">
        <ele>45.7999</ele>
        <time>2013-04-10T17:56:44Z</time>
      </trkpt>
      <trkpt lat="59.9807978" lon="17.7385678">
        <ele>45.7999</ele>
        <time>2013-04-10T17:56:45Z</time>
      </trkpt>
      <trkpt lat="59.9808123" lon="17.7385566">
        <ele>45.7999</ele>
        <time>2013-04-10T17:56:46Z</time>
      </trkpt>
      <trkpt lat="59.9808269" lon="17.7385447">
        <ele>45.3192</ele>
        <time>2013-04-10T17:56:47Z</time>
      </trkpt>
      <trkpt lat="59.9808419" lon="17.7385358">
        <ele>45.3192</ele>
        <time>2013-04-10T17:56:48Z</time>
      </trkpt>
      <trkpt lat="59.9808543" lon="17.7385294">
        <ele>45.7999</ele>
        <time>2013-04-10T17:56:49Z</time>
      </trkpt>
      <trkpt lat="59.9808665" lon="17.7385272">
        <ele>46.2806</ele>
        <time>2013-04-10T17:56:50Z</time>
      </trkpt>
      <trkpt lat="59.9808782" lon="17.7385206">
        <ele>46.2806</ele>
        <time>2013-04-10T17:56:51Z</time>
      </trkpt>
      <trkpt lat="59.9808937" lon="17.738512">
        <ele>46.7612</ele>
        <time>2013-04-10T17:56:52Z</time>
      </trkpt>
      <trkpt lat="59.9809057" lon="17.7385017">
        <ele>46.2806</ele>
        <time>2013-04-10T17:56:53Z</time>
      </trkpt>
      <trkpt lat="59.9809216" lon="17.7385012">
        <ele>46.7612</ele>
        <time>2013-04-10T17:56:54Z</time>
      </trkpt>
      <trkpt lat="59.9809372" lon="17.738496">
        <ele>47.7225</ele>
        <time>2013-04-10T17:56:55Z</time>
      </trkpt>
      <trkpt lat="59.9809514" lon="17.7384815">
        <ele>47.7225</ele>
        <time>2013-04-10T17:56:56Z</time>
      </trkpt>
      <trkpt lat="59.9809696" lon="17.7384846">
        <ele>47.2418</ele>
        <time>2013-04-10T17:56:57Z</time>
      </trkpt>
      <trkpt lat="59.9809875" lon="17.7384866">
        <ele>47.2418</ele>
        <time>2013-04-10T17:56:58Z</time>
      </trkpt>
      <trkpt lat="59.9810055" lon="17.7384887">
        <ele>47.7225</ele>
        <time>2013-04-10T17:56:59Z</time>
      </trkpt>
      <trkpt lat="59.98102" lon="17.7384876">
        <ele>47.7225</ele>
        <time>2013-04-10T17:57:00Z</time>
      </trkpt>
      <trkpt lat="59.9810348" lon="17.738483">
        <ele>47.7225</ele>
        <time>2013-04-10T17:57:01Z</time>
      </trkpt>
      <trkpt lat="59.9810528" lon="17.7384824">
        <ele>48.2034</ele>
        <time>2013-04-10T17:57:02Z</time>
      </trkpt>
      <trkpt lat="59.9810692" lon="17.738485">
        <ele>48.684</ele>
        <time>2013-04-10T17:57:03Z</time>
      </trkpt>
      <trkpt lat="59.9810801" lon="17.7384784">
        <ele>48.684</ele>
        <time>2013-04-10T17:57:04Z</time>
      </trkpt>
      <trkpt lat="59.9810914" lon="17.7384746">
        <ele>48.2034</ele>
        <time>2013-04-10T17:57:05Z</time>
      </trkpt>
      <trkpt lat="59.9811049" lon="17.7384743">
        <ele>48.2034</ele>
        <time>2013-04-10T17:57:06Z</time>
      </trkpt>
      <trkpt lat="59.9811164" lon="17.7384803">
        <ele>48.2034</ele>
        <time>2013-04-10T17:57:07Z</time>
      </trkpt>
      <trkpt lat="59.9811271" lon="17.7384807">
        <ele>47.7225</ele>
        <time>2013-04-10T17:57:08Z</time>
      </trkpt>
      <trkpt lat="59.9811371" lon="17.7384761">
        <ele>47.7225</ele>
        <time>2013-04-10T17:57:09Z</time>
      </trkpt>
      <trkpt lat="59.9811486" lon="17.7384711">
        <ele>47.7225</ele>
        <time>2013-04-10T17:57:10Z</time>
      </trkpt>
      <trkpt lat="59.9811649" lon="17.7384732">
        <ele>47.2418</ele>
        <time>2013-04-10T17:57:11Z</time>
      </trkpt>
      <trkpt lat="59.9811779" lon="17.738467">
        <ele>46.7612</ele>
        <time>2013-04-10T17:57:12Z</time>
      </trkpt>
      <trkpt lat="59.9811928" lon="17.7384617">
        <ele>46.7612</ele>
        <time>2013-04-10T17:57:13Z</time>
      </trkpt>
      <trkpt lat="59.9812069" lon="17.7384575">
        <ele>47.2418</ele>
        <time>2013-04-10T17:57:14Z</time>
      </trkpt>
      <trkpt lat="59.981224" lon="17.7384514">
        <ele>47.2418</ele>
        <time>2013-04-10T17:57:15Z</time>
      </trkpt>
      <trkpt lat="59.98124" lon="17.7384505">
        <ele>48.2034</ele>
        <time>2013-04-10T17:57:16Z</time>
      </trkpt>
      <trkpt lat="59.9812546" lon="17.7384437">
        <ele>48.2034</ele>
        <time>2013-04-10T17:57:17Z</time>
      </trkpt>
      <trkpt lat="59.9812697" lon="17.7384344">
        <ele>48.2034</ele>
        <time>2013-04-10T17:57:18Z</time>
      </trkpt>
      <trkpt lat="59.9812843" lon="17.7384224">
        <ele>48.684</ele>
        <time>2013-04-10T17:57:19Z</time>
      </trkpt>
      <trkpt lat="59.9813013" lon="17.7384191">
        <ele>48.2034</ele>
        <time>2013-04-10T17:57:20Z</time>
      </trkpt>
      <trkpt lat="59.9813184" lon="17.7384148">
        <ele>48.2034</ele>
        <time>2013-04-10T17:57:21Z</time>
      </trkpt>
      <trkpt lat="59.981334" lon="17.7384126">
        <ele>48.2034</ele>
        <time>2013-04-10T17:57:22Z</time>
      </trkpt>
      <trkpt lat="59.9813469" lon="17.7384018">
        <ele>48.2034</ele>
        <time>2013-04-10T17:57:23Z</time>
      </trkpt>
      <trkpt lat="59.9813619" lon="17.7383872">
        <ele>48.2034</ele>
        <time>2013-04-10T17:57:24Z</time>
      </trkpt>
      <trkpt lat="59.9813764" lon="17.7383757">
        <ele>48.2034</ele>
        <time>2013-04-10T17:57:25Z</time>
      </trkpt>
      <trkpt lat="59.9813947" lon="17.7383763">
        <ele>47.7225</ele>
        <time>2013-04-10T17:57:26Z</time>
      </trkpt>
      <trkpt lat="59.9814122" lon="17.7383728">
        <ele>47.7225</ele>
        <time>2013-04-10T17:57:27Z</time>
      </trkpt>
      <trkpt lat="59.9814298" lon="17.7383665">
        <ele>47.2418</ele>
        <time>2013-04-10T17:57:28Z</time>
      </trkpt>
      <trkpt lat="59.9814458" lon="17.7383658">
        <ele>47.2418</ele>
        <time>2013-04-10T17:57:29Z</time>
      </trkpt>
      <trkpt lat="59.9814608" lon="17.738367">
        <ele>47.2418</ele>
        <time>2013-04-10T17:57:30Z</time>
      </trkpt>
      <trkpt lat="59.9814764" lon="17.738368">
        <ele>47.2418</ele>
        <time>2013-04-10T17:57:31Z</time>
      </trkpt>
      <trkpt lat="59.981496" lon="17.7383645">
        <ele>47.7225</ele>
        <time>2013-04-10T17:57:32Z</time>
      </trkpt>
      <trkpt lat="59.9815101" lon="17.7383453">
        <ele>47.7225</ele>
        <time>2013-04-10T17:57:33Z</time>
      </trkpt>
      <trkpt lat="59.9815267" lon="17.7383342">
        <ele>47.7225</ele>
        <time>2013-04-10T17:57:34Z</time>
      </trkpt>
      <trkpt lat="59.9815442" lon="17.7383347">
        <ele>48.2034</ele>
        <time>2013-04-10T17:57:35Z</time>
      </trkpt>
      <trkpt lat="59.9815602" lon="17.7383369">
        <ele>48.2034</ele>
        <time>2013-04-10T17:57:36Z</time>
      </trkpt>
      <trkpt lat="59.9815763" lon="17.7383323">
        <ele>48.684</ele>
        <time>2013-04-10T17:57:37Z</time>
      </trkpt>
      <trkpt lat="59.981595" lon="17.7383281">
        <ele>48.684</ele>
        <time>2013-04-10T17:57:38Z</time>
      </trkpt>
      <trkpt lat="59.9816114" lon="17.7383214">
        <ele>49.1646</ele>
        <time>2013-04-10T17:57:39Z</time>
      </trkpt>
      <trkpt lat="59.9816254" lon="17.7383167">
        <ele>49.1646</ele>
        <time>2013-04-10T17:57:40Z</time>
      </trkpt>
      <trkpt lat="59.9816392" lon="17.7383104">
        <ele>49.1646</ele>
        <time>2013-04-10T17:57:41Z</time>
      </trkpt>
      <trkpt lat="59.981655" lon="17.7382985">
        <ele>49.6453</ele>
        <time>2013-04-10T17:57:42Z</time>
      </trkpt>
      <trkpt lat="59.98167" lon="17.7382977">
        <ele>50.126</ele>
        <time>2013-04-10T17:57:43Z</time>
      </trkpt>
      <trkpt lat="59.9816858" lon="17.7382836">
        <ele>50.6066</ele>
        <time>2013-04-10T17:57:44Z</time>
      </trkpt>
      <trkpt lat="59.9817018" lon="17.7382824">
        <ele>51.0872</ele>
        <time>2013-04-10T17:57:45Z</time>
      </trkpt>
      <trkpt lat="59.9817161" lon="17.7382782">
        <ele>51.0872</ele>
        <time>2013-04-10T17:57:46Z</time>
      </trkpt>
      <trkpt lat="59.9817323" lon="17.7382738">
        <ele>51.5679</ele>
        <time>2013-04-10T17:57:47Z</time>
      </trkpt>
      <trkpt lat="59.9817485" lon="17.7382702">
        <ele>51.5679</ele>
        <time>2013-04-10T17:57:48Z</time>
      </trkpt>
      <trkpt lat="59.9817634" lon="17.7382624">
        <ele>51.5679</ele>
        <time>2013-04-10T17:57:49Z</time>
      </trkpt>
      <trkpt lat="59.9817792" lon="17.7382534">
        <ele>51.5679</ele>
        <time>2013-04-10T17:57:50Z</time>
      </trkpt>
      <trkpt lat="59.981796" lon="17.7382451">
        <ele>51.0872</ele>
        <time>2013-04-10T17:57:51Z</time>
      </trkpt>
      <trkpt lat="59.9818121" lon="17.7382384">
        <ele>51.5679</ele>
        <time>2013-04-10T17:57:52Z</time>
      </trkpt>
      <trkpt lat="59.9818276" lon="17.7382323">
        <ele>51.5679</ele>
        <time>2013-04-10T17:57:53Z</time>
      </trkpt>
      <trkpt lat="59.9818426" lon="17.7382333">
        <ele>51.5679</ele>
        <time>2013-04-10T17:57:54Z</time>
      </trkpt>
      <trkpt lat="59.981857" lon="17.7382328">
        <ele>51.5679</ele>
        <time>2013-04-10T17:57:55Z</time>
      </trkpt>
      <trkpt lat="59.9818715" lon="17.7382219">
        <ele>52.0486</ele>
        <time>2013-04-10T17:57:56Z</time>
      </trkpt>
      <trkpt lat="59.981887" lon="17.7382184">
        <ele>52.0486</ele>
        <time>2013-04-10T17:57:57Z</time>
      </trkpt>
      <trkpt lat="59.9819048" lon="17.7382183">
        <ele>52.0486</ele>
        <time>2013-04-10T17:57:58Z</time>
      </trkpt>
      <trkpt lat="59.9819219" lon="17.7382186">
        <ele>52.0486</ele>
        <time>2013-04-10T17:57:59Z</time>
      </trkpt>
      <trkpt lat="59.9819375" lon="17.7382163">
        <ele>52.5292</ele>
        <time>2013-04-10T17:58:00Z</time>
      </trkpt>
      <trkpt lat="59.9819535" lon="17.7382137">
        <ele>52.5292</ele>
        <time>2013-04-10T17:58:01Z</time>
      </trkpt>
      <trkpt lat="59.9819681" lon="17.7382072">
        <ele>52.5292</ele>
        <time>2013-04-10T17:58:02Z</time>
      </trkpt>
      <trkpt lat="59.9819856" lon="17.7381975">
        <ele>52.5292</ele>
        <time>2013-04-10T17:58:03Z</time>
      </trkpt>
      <trkpt lat="59.9820006" lon="17.7381789">
        <ele>52.5292</ele>
        <time>2013-04-10T17:58:04Z</time>
      </trkpt>
      <trkpt lat="59.9820144" lon="17.7381696">
        <ele>52.0486</ele>
        <time>2013-04-10T17:58:05Z</time>
      </trkpt>
      <trkpt lat="59.9820281" lon="17.7381659">
        <ele>52.0486</ele>
        <time>2013-04-10T17:58:06Z</time>
      </trkpt>
      <trkpt lat="59.9820426" lon="17.7381618">
        <ele>51.5679</ele>
        <time>2013-04-10T17:58:07Z</time>
      </trkpt>
      <trkpt lat="59.9820571" lon="17.7381575">
        <ele>51.5679</ele>
        <time>2013-04-10T17:58:08Z</time>
      </trkpt>
      <trkpt lat="59.9820703" lon="17.7381536">
        <ele>51.0872</ele>
        <time>2013-04-10T17:58:09Z</time>
      </trkpt>
      <trkpt lat="59.9820846" lon="17.7381534">
        <ele>51.0872</ele>
        <time>2013-04-10T17:58:10Z</time>
      </trkpt>
      <trkpt lat="59.9821041" lon="17.7381597">
        <ele>51.5679</ele>
        <time>2013-04-10T17:58:11Z</time>
      </trkpt>
      <trkpt lat="59.9821249" lon="17.7381643">
        <ele>51.5679</ele>
        <time>2013-04-10T17:58:12Z</time>
      </trkpt>
      <trkpt lat="59.9821424" lon="17.7381614">
        <ele>51.5679</ele>
        <time>2013-04-10T17:58:13Z</time>
      </trkpt>
      <trkpt lat="59.9821543" lon="17.7381596">
        <ele>51.5679</ele>
        <time>2013-04-10T17:58:14Z</time>
      </trkpt>
      <trkpt lat="59.9821667" lon="17.7381549">
        <ele>51.5679</ele>
        <time>2013-04-10T17:58:15Z</time>
      </trkpt>
      <trkpt lat="59.9821818" lon="17.7381504">
        <ele>51.5679</ele>
        <time>2013-04-10T17:58:16Z</time>
      </trkpt>
      <trkpt lat="59.9821959" lon="17.7381485">
        <ele>51.5679</ele>
        <time>2013-04-10T17:58:17Z</time>
      </trkpt>
      <trkpt lat="59.9822058" lon="17.7381541">
        <ele>51.5679</ele>
        <time>2013-04-10T17:58:18Z</time>
      </trkpt>
      <trkpt lat="59.9822186" lon="17.7381632">
        <ele>51.0872</ele>
        <time>2013-04-10T17:58:19Z</time>
      </trkpt>
      <trkpt lat="59.9822343" lon="17.7381609">
        <ele>51.0872</ele>
        <time>2013-04-10T17:58:20Z</time>
      </trkpt>
      <trkpt lat="59.9822516" lon="17.7381505">
        <ele>50.6066</ele>
        <time>2013-04-10T17:58:21Z</time>
      </trkpt>
      <trkpt lat="59.9822674" lon="17.7381417">
        <ele>50.6066</ele>
        <time>2013-04-10T17:58:22Z</time>
      </trkpt>
      <trkpt lat="59.9822849" lon="17.7381323">
        <ele>50.6066</ele>
        <time>2013-04-10T17:58:23Z</time>
      </trkpt>
      <trkpt lat="59.9823021" lon="17.738123">
        <ele>50.6066</ele>
        <time>2013-04-10T17:58:24Z</time>
      </trkpt>
      <trkpt lat="59.9823187" lon="17.7381183">
        <ele>50.6066</ele>
        <time>2013-04-10T17:58:25Z</time>
      </trkpt>
      <trkpt lat="59.9823358" lon="17.7381089">
        <ele>51.0872</ele>
        <time>2013-04-10T17:58:26Z</time>
      </trkpt>
      <trkpt lat="59.9823521" lon="17.7381006">
        <ele>51.0872</ele>
        <time>2013-04-10T17:58:27Z</time>
      </trkpt>
      <trkpt lat="59.982367" lon="17.7380972">
        <ele>51.0872</ele>
        <time>2013-04-10T17:58:28Z</time>
      </trkpt>
      <trkpt lat="59.9823797" lon="17.7380979">
        <ele>51.5679</ele>
        <time>2013-04-10T17:58:29Z</time>
      </trkpt>
      <trkpt lat="59.9823953" lon="17.7381001">
        <ele>52.0486</ele>
        <time>2013-04-10T17:58:30Z</time>
      </trkpt>
      <trkpt lat="59.9824088" lon="17.7380948">
        <ele>52.0486</ele>
        <time>2013-04-10T17:58:31Z</time>
      </trkpt>
      <trkpt lat="59.9824216" lon="17.7380904">
        <ele>51.5679</ele>
        <time>2013-04-10T17:58:32Z</time>
      </trkpt>
      <trkpt lat="59.9824357" lon="17.7380931">
        <ele>51.0872</ele>
        <time>2013-04-10T17:58:33Z</time>
      </trkpt>
      <trkpt lat="59.9824533" lon="17.738095">
        <ele>51.5679</ele>
        <time>2013-04-10T17:58:34Z</time>
      </trkpt>
      <trkpt lat="59.982471" lon="17.7380959">
        <ele>51.5679</ele>
        <time>2013-04-10T17:58:35Z</time>
      </trkpt>
      <trkpt lat="59.982487" lon="17.7380992">
        <ele>51.5679</ele>
        <time>2013-04-10T17:58:36Z</time>
      </trkpt>
      <trkpt lat="59.9825058" lon="17.7381023">
        <ele>51.5679</ele>
        <time>2013-04-10T17:58:37Z</time>
      </trkpt>
      <trkpt lat="59.9825234" lon="17.7381022">
        <ele>52.0486</ele>
        <time>2013-04-10T17:58:38Z</time>
      </trkpt>
      <trkpt lat="59.9825397" lon="17.7381008">
        <ele>52.0486</ele>
        <time>2013-04-10T17:58:39Z</time>
      </trkpt>
      <trkpt lat="59.9825573" lon="17.7381027">
        <ele>52.0486</ele>
        <time>2013-04-10T17:58:40Z</time>
      </trkpt>
      <trkpt lat="59.982577" lon="17.7381033">
        <ele>52.5292</ele>
        <time>2013-04-10T17:58:41Z</time>
      </trkpt>
      <trkpt lat="59.9825959" lon="17.7381047">
        <ele>52.5292</ele>
        <time>2013-04-10T17:58:42Z</time>
      </trkpt>
      <trkpt lat="59.9826129" lon="17.7381043">
        <ele>52.5292</ele>
        <time>2013-04-10T17:58:43Z</time>
      </trkpt>
      <trkpt lat="59.982627" lon="17.7380931">
        <ele>51.5679</ele>
        <time>2013-04-10T17:58:44Z</time>
      </trkpt>
      <trkpt lat="59.9826425" lon="17.7380934">
        <ele>51.5679</ele>
        <time>2013-04-10T17:58:45Z</time>
      </trkpt>
      <trkpt lat="59.9826609" lon="17.7380931">
        <ele>51.5679</ele>
        <time>2013-04-10T17:58:46Z</time>
      </trkpt>
      <trkpt lat="59.9826792" lon="17.7380907">
        <ele>51.5679</ele>
        <time>2013-04-10T17:58:47Z</time>
      </trkpt>
      <trkpt lat="59.9827025" lon="17.7380805">
        <ele>51.5679</ele>
        <time>2013-04-10T17:58:48Z</time>
      </trkpt>
      <trkpt lat="59.9827256" lon="17.7380717">
        <ele>51.5679</ele>
        <time>2013-04-10T17:58:49Z</time>
      </trkpt>
      <trkpt lat="59.9827414" lon="17.7380629">
        <ele>51.0872</ele>
        <time>2013-04-10T17:58:50Z</time>
      </trkpt>
      <trkpt lat="59.9827542" lon="17.7380583">
        <ele>50.6066</ele>
        <time>2013-04-10T17:58:51Z</time>
      </trkpt>
      <trkpt lat="59.982765" lon="17.7380629">
        <ele>50.126</ele>
        <time>2013-04-10T17:58:52Z</time>
      </trkpt>
      <trkpt lat="59.9827748" lon="17.7380624">
        <ele>49.6453</ele>
        <time>2013-04-10T17:58:53Z</time>
      </trkpt>
      <trkpt lat="59.9827871" lon="17.7380607">
        <ele>48.684</ele>
        <time>2013-04-10T17:58:54Z</time>
      </trkpt>
      <trkpt lat="59.9827968" lon="17.7380612">
        <ele>48.684</ele>
        <time>2013-04-10T17:58:55Z</time>
      </trkpt>
      <trkpt lat="59.9828064" lon="17.7380648">
        <ele>48.2034</ele>
        <time>2013-04-10T17:58:56Z</time>
      </trkpt>
      <trkpt lat="59.9828195" lon="17.7380717">
        <ele>48.684</ele>
        <time>2013-04-10T17:58:57Z</time>
      </trkpt>
      <trkpt lat="59.9828344" lon="17.7380706">
        <ele>48.2034</ele>
        <time>2013-04-10T17:58:58Z</time>
      </trkpt>
      <trkpt lat="59.9828508" lon="17.7380728">
        <ele>48.2034</ele>
        <time>2013-04-10T17:58:59Z</time>
      </trkpt>
      <trkpt lat="59.9828678" lon="17.7380764">
        <ele>48.2034</ele>
        <time>2013-04-10T17:59:00Z</time>
      </trkpt>
      <trkpt lat="59.9828818" lon="17.738081">
        <ele>48.684</ele>
        <time>2013-04-10T17:59:01Z</time>
      </trkpt>
      <trkpt lat="59.9828915" lon="17.7380822">
        <ele>47.7225</ele>
        <time>2013-04-10T17:59:02Z</time>
      </trkpt>
      <trkpt lat="59.9829043" lon="17.7380774">
        <ele>47.2418</ele>
        <time>2013-04-10T17:59:03Z</time>
      </trkpt>
      <trkpt lat="59.982919" lon="17.7380751">
        <ele>47.2418</ele>
        <time>2013-04-10T17:59:04Z</time>
      </trkpt>
      <trkpt lat="59.9829326" lon="17.7380744">
        <ele>47.2418</ele>
        <time>2013-04-10T17:59:05Z</time>
      </trkpt>
      <trkpt lat="59.9829455" lon="17.7380764">
        <ele>46.7612</ele>
        <time>2013-04-10T17:59:06Z</time>
      </trkpt>
      <trkpt lat="59.9829601" lon="17.7380884">
        <ele>46.7612</ele>
        <time>2013-04-10T17:59:07Z</time>
      </trkpt>
      <trkpt lat="59.9829749" lon="17.7380964">
        <ele>46.7612</ele>
        <time>2013-04-10T17:59:08Z</time>
      </trkpt>
      <trkpt lat="59.9829888" lon="17.7381">
        <ele>46.2806</ele>
        <time>2013-04-10T17:59:09Z</time>
      </trkpt>
      <trkpt lat="59.9830004" lon="17.7381034">
        <ele>46.7612</ele>
        <time>2013-04-10T17:59:10Z</time>
      </trkpt>
      <trkpt lat="59.9830138" lon="17.7381003">
        <ele>47.2418</ele>
        <time>2013-04-10T17:59:11Z</time>
      </trkpt>
      <trkpt lat="59.9830278" lon="17.7380982">
        <ele>47.7225</ele>
        <time>2013-04-10T17:59:12Z</time>
      </trkpt>
      <trkpt lat="59.9830443" lon="17.738095">
        <ele>47.7225</ele>
        <time>2013-04-10T17:59:13Z</time>
      </trkpt>
      <trkpt lat="59.9830593" lon="17.7380884">
        <ele>47.7225</ele>
        <time>2013-04-10T17:59:14Z</time>
      </trkpt>
      <trkpt lat="59.9830719" lon="17.7380815">
        <ele>47.2418</ele>
        <time>2013-04-10T17:59:15Z</time>
      </trkpt>
      <trkpt lat="59.9830843" lon="17.738079">
        <ele>47.2418</ele>
        <time>2013-04-10T17:59:16Z</time>
      </trkpt>
      <trkpt lat="59.9830987" lon="17.7380703">
        <ele>47.2418</ele>
        <time>2013-04-10T17:59:17Z</time>
      </trkpt>
      <trkpt lat="59.9831129" lon="17.7380682">
        <ele>47.7225</ele>
        <time>2013-04-10T17:59:18Z</time>
      </trkpt>
      <trkpt lat="59.9831268" lon="17.738072">
        <ele>47.7225</ele>
        <time>2013-04-10T17:59:19Z</time>
      </trkpt>
      <trkpt lat="59.9831411" lon="17.7380738">
        <ele>47.2418</ele>
        <time>2013-04-10T17:59:20Z</time>
      </trkpt>
      <trkpt lat="59.9831592" lon="17.7380731">
        <ele>47.2418</ele>
        <time>2013-04-10T17:59:21Z</time>
      </trkpt>
      <trkpt lat="59.9831765" lon="17.7380727">
        <ele>46.7612</ele>
        <time>2013-04-10T17:59:22Z</time>
      </trkpt>
      <trkpt lat="59.983192" lon="17.7380733">
        <ele>46.2806</ele>
        <time>2013-04-10T17:59:23Z</time>
      </trkpt>
      <trkpt lat="59.9832061" lon="17.7380748">
        <ele>45.7999</ele>
        <time>2013-04-10T17:59:24Z</time>
      </trkpt>
      <trkpt lat="59.983219" lon="17.7380712">
        <ele>45.7999</ele>
        <time>2013-04-10T17:59:25Z</time>
      </trkpt>
      <trkpt lat="59.9832323" lon="17.7380741">
        <ele>45.7999</ele>
        <time>2013-04-10T17:59:26Z</time>
      </trkpt>
      <trkpt lat="59.9832452" lon="17.738077">
        <ele>45.7999</ele>
        <time>2013-04-10T17:59:27Z</time>
      </trkpt>
      <trkpt lat="59.9832608" lon="17.7380805">
        <ele>45.7999</ele>
        <time>2013-04-10T17:59:28Z</time>
      </trkpt>
      <trkpt lat="59.9832754" lon="17.7380837">
        <ele>45.7999</ele>
        <time>2013-04-10T17:59:29Z</time>
      </trkpt>
      <trkpt lat="59.9832919" lon="17.7380821">
        <ele>46.2806</ele>
        <time>2013-04-10T17:59:30Z</time>
      </trkpt>
      <trkpt lat="59.9833046" lon="17.7380778">
        <ele>45.7999</ele>
        <time>2013-04-10T17:59:31Z</time>
      </trkpt>
      <trkpt lat="59.9833183" lon="17.7380753">
        <ele>46.2806</ele>
        <time>2013-04-10T17:59:32Z</time>
      </trkpt>
      <trkpt lat="59.9833335" lon="17.7380734">
        <ele>46.2806</ele>
        <time>2013-04-10T17:59:33Z</time>
      </trkpt>
      <trkpt lat="59.9833494" lon="17.7380765">
        <ele>46.2806</ele>
        <time>2013-04-10T17:59:34Z</time>
      </trkpt>
      <trkpt lat="59.9833624" lon="17.7380805">
        <ele>46.2806</ele>
        <time>2013-04-10T17:59:35Z</time>
      </trkpt>
      <trkpt lat="59.9833719" lon="17.7380779">
        <ele>46.2806</ele>
        <time>2013-04-10T17:59:36Z</time>
      </trkpt>
      <trkpt lat="59.9833827" lon="17.7380716">
        <ele>46.2806</ele>
        <time>2013-04-10T17:59:37Z</time>
      </trkpt>
      <trkpt lat="59.9833964" lon="17.7380758">
        <ele>46.2806</ele>
        <time>2013-04-10T17:59:38Z</time>
      </trkpt>
      <trkpt lat="59.9834092" lon="17.7380769">
        <ele>46.2806</ele>
        <time>2013-04-10T17:59:39Z</time>
      </trkpt>
      <trkpt lat="59.9834213" lon="17.7380774">
        <ele>46.2806</ele>
        <time>2013-04-10T17:59:40Z</time>
      </trkpt>
      <trkpt lat="59.9834366" lon="17.7380743">
        <ele>46.2806</ele>
        <time>2013-04-10T17:59:41Z</time>
      </trkpt>
      <trkpt lat="59.983452" lon="17.7380664">
        <ele>46.2806</ele>
        <time>2013-04-10T17:59:42Z</time>
      </trkpt>
      <trkpt lat="59.9834656" lon="17.7380628">
        <ele>46.2806</ele>
        <time>2013-04-10T17:59:43Z</time>
      </trkpt>
      <trkpt lat="59.9834783" lon="17.7380588">
        <ele>46.2806</ele>
        <time>2013-04-10T17:59:44Z</time>
      </trkpt>
      <trkpt lat="59.9834903" lon="17.7380567">
        <ele>46.7612</ele>
        <time>2013-04-10T17:59:45Z</time>
      </trkpt>
      <trkpt lat="59.9835023" lon="17.7380487">
        <ele>47.2418</ele>
        <time>2013-04-10T17:59:46Z</time>
      </trkpt>
      <trkpt lat="59.9835221" lon="17.7380339">
        <ele>48.2034</ele>
        <time>2013-04-10T17:59:47Z</time>
      </trkpt>
      <trkpt lat="59.9835381" lon="17.7380282">
        <ele>48.684</ele>
        <time>2013-04-10T17:59:48Z</time>
      </trkpt>
      <trkpt lat="59.9835552" lon="17.7380381">
        <ele>49.1646</ele>
        <time>2013-04-10T17:59:49Z</time>
      </trkpt>
      <trkpt lat="59.9835707" lon="17.7380413">
        <ele>49.6453</ele>
        <time>2013-04-10T17:59:50Z</time>
      </trkpt>
      <trkpt lat="59.9835861" lon="17.7380395">
        <ele>50.126</ele>
        <time>2013-04-10T17:59:51Z</time>
      </trkpt>
      <trkpt lat="59.983604" lon="17.7380312">
        <ele>51.0872</ele>
        <time>2013-04-10T17:59:52Z</time>
      </trkpt>
      <trkpt lat="59.9836241" lon="17.7380306">
        <ele>52.0486</ele>
        <time>2013-04-10T17:59:53Z</time>
      </trkpt>
      <trkpt lat="59.9836412" lon="17.7380335">
        <ele>53.0098</ele>
        <time>2013-04-10T17:59:54Z</time>
      </trkpt>
      <trkpt lat="59.983658" lon="17.7380344">
        <ele>53.9712</ele>
        <time>2013-04-10T17:59:55Z</time>
      </trkpt>
      <trkpt lat="59.983676" lon="17.7380249">
        <ele>53.9712</ele>
        <time>2013-04-10T17:59:56Z</time>
      </trkpt>
      <trkpt lat="59.9836923" lon="17.7380223">
        <ele>53.9712</ele>
        <time>2013-04-10T17:59:57Z</time>
      </trkpt>
      <trkpt lat="59.9837057" lon="17.7380254">
        <ele>53.4905</ele>
        <time>2013-04-10T17:59:58Z</time>
      </trkpt>
      <trkpt lat="59.9837189" lon="17.7380302">
        <ele>53.4905</ele>
        <time>2013-04-10T17:59:59Z</time>
      </trkpt>
      <trkpt lat="59.9837334" lon="17.7380324">
        <ele>53.0098</ele>
        <time>2013-04-10T18:00:00Z</time>
      </trkpt>
      <trkpt lat="59.9837494" lon="17.738024">
        <ele>52.5292</ele>
        <time>2013-04-10T18:00:01Z</time>
      </trkpt>
      <trkpt lat="59.9837665" lon="17.7380024">
        <ele>52.5292</ele>
        <time>2013-04-10T18:00:02Z</time>
      </trkpt>
      <trkpt lat="59.9837815" lon="17.7379957">
        <ele>52.0486</ele>
        <time>2013-04-10T18:00:03Z</time>
      </trkpt>
      <trkpt lat="59.9837971" lon="17.7379871">
        <ele>51.5679</ele>
        <time>2013-04-10T18:00:04Z</time>
      </trkpt>
      <trkpt lat="59.9838146" lon="17.7379876">
        <ele>51.0872</ele>
        <time>2013-04-10T18:00:05Z</time>
      </trkpt>
      <trkpt lat="59.9838318" lon="17.737984">
        <ele>50.126</ele>
        <time>2013-04-10T18:00:06Z</time>
      </trkpt>
      <trkpt lat="59.9838493" lon="17.7379795">
        <ele>49.1646</ele>
        <time>2013-04-10T18:00:07Z</time>
      </trkpt>
      <trkpt lat="59.9838629" lon="17.7379835">
        <ele>48.684</ele>
        <time>2013-04-10T18:00:08Z</time>
      </trkpt>
      <trkpt lat="59.9838736" lon="17.7379882">
        <ele>48.684</ele>
        <time>2013-04-10T18:00:09Z</time>
      </trkpt>
      <trkpt lat="59.9838894" lon="17.7379877">
        <ele>48.2034</ele>
        <time>2013-04-10T18:00:10Z</time>
      </trkpt>
      <trkpt lat="59.9839046" lon="17.7379837">
        <ele>47.7225</ele>
        <time>2013-04-10T18:00:11Z</time>
      </trkpt>
      <trkpt lat="59.9839233" lon="17.7379742">
        <ele>46.7612</ele>
        <time>2013-04-10T18:00:12Z</time>
      </trkpt>
      <trkpt lat="59.9839383" lon="17.7379614">
        <ele>46.2806</ele>
        <time>2013-04-10T18:00:13Z</time>
      </trkpt>
      <trkpt lat="59.9839556" lon="17.7379505">
        <ele>45.7999</ele>
        <time>2013-04-10T18:00:14Z</time>
      </trkpt>
      <trkpt lat="59.9839722" lon="17.737939">
        <ele>45.3192</ele>
        <time>2013-04-10T18:00:15Z</time>
      </trkpt>
      <trkpt lat="59.9839887" lon="17.7379332">
        <ele>44.8386</ele>
        <time>2013-04-10T18:00:16Z</time>
      </trkpt>
      <trkpt lat="59.9840012" lon="17.7379343">
        <ele>44.8386</ele>
        <time>2013-04-10T18:00:17Z</time>
      </trkpt>
      <trkpt lat="59.9840153" lon="17.7379355">
        <ele>44.358</ele>
        <time>2013-04-10T18:00:18Z</time>
      </trkpt>
      <trkpt lat="59.9840297" lon="17.7379401">
        <ele>44.358</ele>
        <time>2013-04-10T18:00:19Z</time>
      </trkpt>
      <trkpt lat="59.984041" lon="17.7379499">
        <ele>43.3966</ele>
        <time>2013-04-10T18:00:20Z</time>
      </trkpt>
      <trkpt lat="59.9840597" lon="17.7379467">
        <ele>43.3966</ele>
        <time>2013-04-10T18:00:21Z</time>
      </trkpt>
      <trkpt lat="59.9840754" lon="17.7379391">
        <ele>43.3966</ele>
        <time>2013-04-10T18:00:22Z</time>
      </trkpt>
      <trkpt lat="59.9840932" lon="17.7379323">
        <ele>43.3966</ele>
        <time>2013-04-10T18:00:23Z</time>
      </trkpt>
      <trkpt lat="59.9841125" lon="17.7379247">
        <ele>43.8773</ele>
        <time>2013-04-10T18:00:24Z</time>
      </trkpt>
      <trkpt lat="59.9841333" lon="17.7379293">
        <ele>43.8773</ele>
        <time>2013-04-10T18:00:25Z</time>
      </trkpt>
      <trkpt lat="59.9841531" lon="17.7379329">
        <ele>44.358</ele>
        <time>2013-04-10T18:00:26Z</time>
      </trkpt>
      <trkpt lat="59.9841701" lon="17.7379386">
        <ele>44.358</ele>
        <time>2013-04-10T18:00:27Z</time>
      </trkpt>
      <trkpt lat="59.9841876" lon="17.7379438">
        <ele>43.8773</ele>
        <time>2013-04-10T18:00:28Z</time>
      </trkpt>
      <trkpt lat="59.9842006" lon="17.7379519">
        <ele>44.358</ele>
        <time>2013-04-10T18:00:29Z</time>
      </trkpt>
      <trkpt lat="59.984217" lon="17.7379578">
        <ele>44.8386</ele>
        <time>2013-04-10T18:00:30Z</time>
      </trkpt>
      <trkpt lat="59.9842291" lon="17.7379578">
        <ele>45.7999</ele>
        <time>2013-04-10T18:00:31Z</time>
      </trkpt>
      <trkpt lat="59.98424" lon="17.7379593">
        <ele>45.7999</ele>
        <time>2013-04-10T18:00:32Z</time>
      </trkpt>
      <trkpt lat="59.9842545" lon="17.7379641">
        <ele>46.7612</ele>
        <time>2013-04-10T18:00:33Z</time>
      </trkpt>
      <trkpt lat="59.9842698" lon="17.7379681">
        <ele>47.2418</ele>
        <time>2013-04-10T18:00:34Z</time>
      </trkpt>
      <trkpt lat="59.9842854" lon="17.7379764">
        <ele>47.7225</ele>
        <time>2013-04-10T18:00:35Z</time>
      </trkpt>
      <trkpt lat="59.984303" lon="17.7379822">
        <ele>48.2034</ele>
        <time>2013-04-10T18:00:36Z</time>
      </trkpt>
      <trkpt lat="59.9843183" lon="17.737983">
        <ele>48.684</ele>
        <time>2013-04-10T18:00:37Z</time>
      </trkpt>
      <trkpt lat="59.9843341" lon="17.7379878">
        <ele>48.684</ele>
        <time>2013-04-10T18:00:38Z</time>
      </trkpt>
      <trkpt lat="59.9843498" lon="17.7379819">
        <ele>48.2034</ele>
        <time>2013-04-10T18:00:39Z</time>
      </trkpt>
      <trkpt lat="59.9843637" lon="17.7379784">
        <ele>48.2034</ele>
        <time>2013-04-10T18:00:40Z</time>
      </trkpt>
      <trkpt lat="59.9843782" lon="17.7379776">
        <ele>48.2034</ele>
        <time>2013-04-10T18:00:41Z</time>
      </trkpt>
      <trkpt lat="59.9843941" lon="17.7379837">
        <ele>48.2034</ele>
        <time>2013-04-10T18:00:42Z</time>
      </trkpt>
      <trkpt lat="59.9844099" lon="17.7379889">
        <ele>48.684</ele>
        <time>2013-04-10T18:00:43Z</time>
      </trkpt>
      <trkpt lat="59.9844248" lon="17.7379889">
        <ele>48.684</ele>
        <time>2013-04-10T18:00:44Z</time>
      </trkpt>
      <trkpt lat="59.9844403" lon="17.7379848">
        <ele>48.684</ele>
        <time>2013-04-10T18:00:45Z</time>
      </trkpt>
      <trkpt lat="59.9844594" lon="17.7379799">
        <ele>49.1646</ele>
        <time>2013-04-10T18:00:46Z</time>
      </trkpt>
      <trkpt lat="59.9844789" lon="17.7379812">
        <ele>49.1646</ele>
        <time>2013-04-10T18:00:47Z</time>
      </trkpt>
      <trkpt lat="59.9844967" lon="17.7379815">
        <ele>49.6453</ele>
        <time>2013-04-10T18:00:48Z</time>
      </trkpt>
      <trkpt lat="59.984514" lon="17.7379793">
        <ele>49.6453</ele>
        <time>2013-04-10T18:00:49Z</time>
      </trkpt>
      <trkpt lat="59.9845297" lon="17.7379847">
        <ele>50.126</ele>
        <time>2013-04-10T18:00:50Z</time>
      </trkpt>
      <trkpt lat="59.984542" lon="17.7379945">
        <ele>49.6453</ele>
        <time>2013-04-10T18:00:51Z</time>
      </trkpt>
      <trkpt lat="59.9845586" lon="17.7380069">
        <ele>49.6453</ele>
        <time>2013-04-10T18:00:52Z</time>
      </trkpt>
      <trkpt lat="59.9845747" lon="17.7380121">
        <ele>49.6453</ele>
        <time>2013-04-10T18:00:53Z</time>
      </trkpt>
      <trkpt lat="59.984592" lon="17.7380178">
        <ele>49.6453</ele>
        <time>2013-04-10T18:00:54Z</time>
      </trkpt>
      <trkpt lat="59.9846025" lon="17.7380229">
        <ele>49.6453</ele>
        <time>2013-04-10T18:00:55Z</time>
      </trkpt>
      <trkpt lat="59.9846143" lon="17.7380244">
        <ele>49.6453</ele>
        <time>2013-04-10T18:00:56Z</time>
      </trkpt>
      <trkpt lat="59.9846264" lon="17.7380261">
        <ele>49.6453</ele>
        <time>2013-04-10T18:00:57Z</time>
      </trkpt>
      <trkpt lat="59.9846388" lon="17.7380276">
        <ele>49.1646</ele>
        <time>2013-04-10T18:00:58Z</time>
      </trkpt>
      <trkpt lat="59.9846519" lon="17.7380301">
        <ele>49.1646</ele>
        <time>2013-04-10T18:00:59Z</time>
      </trkpt>
      <trkpt lat="59.9846661" lon="17.7380366">
        <ele>49.6453</ele>
        <time>2013-04-10T18:01:00Z</time>
      </trkpt>
      <trkpt lat="59.9846781" lon="17.7380399">
        <ele>49.6453</ele>
        <time>2013-04-10T18:01:01Z</time>
      </trkpt>
      <trkpt lat="59.9846951" lon="17.7380459">
        <ele>50.126</ele>
        <time>2013-04-10T18:01:02Z</time>
      </trkpt>
      <trkpt lat="59.9847115" lon="17.7380458">
        <ele>50.126</ele>
        <time>2013-04-10T18:01:03Z</time>
      </trkpt>
      <trkpt lat="59.9847248" lon="17.7380472">
        <ele>50.6066</ele>
        <time>2013-04-10T18:01:04Z</time>
      </trkpt>
      <trkpt lat="59.9847389" lon="17.7380531">
        <ele>50.6066</ele>
        <time>2013-04-10T18:01:05Z</time>
      </trkpt>
      <trkpt lat="59.984755" lon="17.7380622">
        <ele>50.6066</ele>
        <time>2013-04-10T18:01:06Z</time>
      </trkpt>
      <trkpt lat="59.9847734" lon="17.738069">
        <ele>50.126</ele>
        <time>2013-04-10T18:01:07Z</time>
      </trkpt>
      <trkpt lat="59.984791" lon="17.7380727">
        <ele>49.6453</ele>
        <time>2013-04-10T18:01:08Z</time>
      </trkpt>
      <trkpt lat="59.9848128" lon="17.7380772">
        <ele>49.6453</ele>
        <time>2013-04-10T18:01:09Z</time>
      </trkpt>
      <trkpt lat="59.9848315" lon="17.7380769">
        <ele>49.6453</ele>
        <time>2013-04-10T18:01:10Z</time>
      </trkpt>
      <trkpt lat="59.9848487" lon="17.7380762">
        <ele>49.1646</ele>
        <time>2013-04-10T18:01:11Z</time>
      </trkpt>
      <trkpt lat="59.9848662" lon="17.7380733">
        <ele>49.1646</ele>
        <time>2013-04-10T18:01:12Z</time>
      </trkpt>
      <trkpt lat="59.9848821" lon="17.7380717">
        <ele>48.684</ele>
        <time>2013-04-10T18:01:13Z</time>
      </trkpt>
      <trkpt lat="59.9848989" lon="17.7380764">
        <ele>48.684</ele>
        <time>2013-04-10T18:01:14Z</time>
      </trkpt>
      <trkpt lat="59.9849134" lon="17.7380755">
        <ele>48.684</ele>
        <time>2013-04-10T18:01:15Z</time>
      </trkpt>
      <trkpt lat="59.9849296" lon="17.738081">
        <ele>48.684</ele>
        <time>2013-04-10T18:01:16Z</time>
      </trkpt>
      <trkpt lat="59.9849466" lon="17.7380855">
        <ele>49.1646</ele>
        <time>2013-04-10T18:01:17Z</time>
      </trkpt>
      <trkpt lat="59.984962" lon="17.7380892">
        <ele>49.6453</ele>
        <time>2013-04-10T18:01:18Z</time>
      </trkpt>
      <trkpt lat="59.9849746" lon="17.7380962">
        <ele>49.1646</ele>
        <time>2013-04-10T18:01:19Z</time>
      </trkpt>
      <trkpt lat="59.9849893" lon="17.7381033">
        <ele>49.6453</ele>
        <time>2013-04-10T18:01:20Z</time>
      </trkpt>
      <trkpt lat="59.985004" lon="17.7381093">
        <ele>49.1646</ele>
        <time>2013-04-10T18:01:21Z</time>
      </trkpt>
      <trkpt lat="59.9850189" lon="17.7381143">
        <ele>49.1646</ele>
        <time>2013-04-10T18:01:22Z</time>
      </trkpt>
      <trkpt lat="59.9850294" lon="17.7381153">
        <ele>48.684</ele>
        <time>2013-04-10T18:01:23Z</time>
      </trkpt>
      <trkpt lat="59.985046" lon="17.7381159">
        <ele>49.1646</ele>
        <time>2013-04-10T18:01:24Z</time>
      </trkpt>
      <trkpt lat="59.985062" lon="17.7381169">
        <ele>48.684</ele>
        <time>2013-04-10T18:01:25Z</time>
      </trkpt>
      <trkpt lat="59.9850786" lon="17.7381251">
        <ele>48.684</ele>
        <time>2013-04-10T18:01:26Z</time>
      </trkpt>
      <trkpt lat="59.9850926" lon="17.7381307">
        <ele>49.1646</ele>
        <time>2013-04-10T18:01:27Z</time>
      </trkpt>
      <trkpt lat="59.985107" lon="17.7381354">
        <ele>49.1646</ele>
        <time>2013-04-10T18:01:28Z</time>
      </trkpt>
      <trkpt lat="59.98512" lon="17.7381394">
        <ele>49.1646</ele>
        <time>2013-04-10T18:01:29Z</time>
      </trkpt>
      <trkpt lat="59.9851344" lon="17.7381422">
        <ele>49.1646</ele>
        <time>2013-04-10T18:01:30Z</time>
      </trkpt>
      <trkpt lat="59.9851506" lon="17.7381463">
        <ele>49.1646</ele>
        <time>2013-04-10T18:01:31Z</time>
      </trkpt>
      <trkpt lat="59.9851673" lon="17.7381448">
        <ele>49.6453</ele>
        <time>2013-04-10T18:01:32Z</time>
      </trkpt>
      <trkpt lat="59.9851833" lon="17.7381474">
        <ele>49.6453</ele>
        <time>2013-04-10T18:01:33Z</time>
      </trkpt>
      <trkpt lat="59.9851967" lon="17.7381515">
        <ele>49.6453</ele>
        <time>2013-04-10T18:01:34Z</time>
      </trkpt>
      <trkpt lat="59.9852113" lon="17.7381562">
        <ele>49.6453</ele>
        <time>2013-04-10T18:01:35Z</time>
      </trkpt>
      <trkpt lat="59.9852274" lon="17.7381599">
        <ele>49.6453</ele>
        <time>2013-04-10T18:01:36Z</time>
      </trkpt>
      <trkpt lat="59.9852428" lon="17.7381644">
        <ele>50.126</ele>
        <time>2013-04-10T18:01:37Z</time>
      </trkpt>
      <trkpt lat="59.9852584" lon="17.7381699">
        <ele>50.126</ele>
        <time>2013-04-10T18:01:38Z</time>
      </trkpt>
      <trkpt lat="59.9852756" lon="17.7381707">
        <ele>50.126</ele>
        <time>2013-04-10T18:01:39Z</time>
      </trkpt>
      <trkpt lat="59.9852904" lon="17.7381713">
        <ele>50.126</ele>
        <time>2013-04-10T18:01:40Z</time>
      </trkpt>
      <trkpt lat="59.9853082" lon="17.7381793">
        <ele>50.126</ele>
        <time>2013-04-10T18:01:41Z</time>
      </trkpt>
      <trkpt lat="59.9853247" lon="17.7381836">
        <ele>50.6066</ele>
        <time>2013-04-10T18:01:42Z</time>
      </trkpt>
      <trkpt lat="59.9853407" lon="17.7381858">
        <ele>50.6066</ele>
        <time>2013-04-10T18:01:43Z</time>
      </trkpt>
      <trkpt lat="59.985355" lon="17.7381938">
        <ele>50.6066</ele>
        <time>2013-04-10T18:01:44Z</time>
      </trkpt>
      <trkpt lat="59.9853691" lon="17.7381997">
        <ele>50.6066</ele>
        <time>2013-04-10T18:01:45Z</time>
      </trkpt>
      <trkpt lat="59.985383" lon="17.7382065">
        <ele>50.6066</ele>
        <time>2013-04-10T18:01:46Z</time>
      </trkpt>
      <trkpt lat="59.9853972" lon="17.7382095">
        <ele>50.6066</ele>
        <time>2013-04-10T18:01:47Z</time>
      </trkpt>
      <trkpt lat="59.9854086" lon="17.7382141">
        <ele>50.6066</ele>
        <time>2013-04-10T18:01:48Z</time>
      </trkpt>
      <trkpt lat="59.985421" lon="17.7382243">
        <ele>49.6453</ele>
        <time>2013-04-10T18:01:49Z</time>
      </trkpt>
      <trkpt lat="59.9854336" lon="17.7382327">
        <ele>49.6453</ele>
        <time>2013-04-10T18:01:50Z</time>
      </trkpt>
      <trkpt lat="59.9854484" lon="17.7382374">
        <ele>49.1646</ele>
        <time>2013-04-10T18:01:51Z</time>
      </trkpt>
      <trkpt lat="59.9854638" lon="17.7382452">
        <ele>48.684</ele>
        <time>2013-04-10T18:01:52Z</time>
      </trkpt>
      <trkpt lat="59.9854753" lon="17.7382541">
        <ele>48.684</ele>
        <time>2013-04-10T18:01:53Z</time>
      </trkpt>
      <trkpt lat="59.9854863" lon="17.7382643">
        <ele>48.684</ele>
        <time>2013-04-10T18:01:54Z</time>
      </trkpt>
      <trkpt lat="59.9854993" lon="17.7382733">
        <ele>48.2034</ele>
        <time>2013-04-10T18:01:55Z</time>
      </trkpt>
      <trkpt lat="59.9855162" lon="17.7382856">
        <ele>48.684</ele>
        <time>2013-04-10T18:01:56Z</time>
      </trkpt>
      <trkpt lat="59.9855314" lon="17.738293">
        <ele>48.2034</ele>
        <time>2013-04-10T18:01:57Z</time>
      </trkpt>
      <trkpt lat="59.9855438" lon="17.7383012">
        <ele>47.7225</ele>
        <time>2013-04-10T18:01:58Z</time>
      </trkpt>
      <trkpt lat="59.9855567" lon="17.7383074">
        <ele>47.7225</ele>
        <time>2013-04-10T18:01:59Z</time>
      </trkpt>
      <trkpt lat="59.9855701" lon="17.7383121">
        <ele>47.7225</ele>
        <time>2013-04-10T18:02:00Z</time>
      </trkpt>
      <trkpt lat="59.9855851" lon="17.7383205">
        <ele>47.7225</ele>
        <time>2013-04-10T18:02:01Z</time>
      </trkpt>
      <trkpt lat="59.9855983" lon="17.7383266">
        <ele>47.7225</ele>
        <time>2013-04-10T18:02:02Z</time>
      </trkpt>
      <trkpt lat="59.9856144" lon="17.7383323">
        <ele>47.7225</ele>
        <time>2013-04-10T18:02:03Z</time>
      </trkpt>
      <trkpt lat="59.9856294" lon="17.7383399">
        <ele>48.2034</ele>
        <time>2013-04-10T18:02:04Z</time>
      </trkpt>
      <trkpt lat="59.9856444" lon="17.738345">
        <ele>48.2034</ele>
        <time>2013-04-10T18:02:05Z</time>
      </trkpt>
      <trkpt lat="59.9856618" lon="17.7383443">
        <ele>48.2034</ele>
        <time>2013-04-10T18:02:06Z</time>
      </trkpt>
      <trkpt lat="59.9856785" lon="17.7383447">
        <ele>48.2034</ele>
        <time>2013-04-10T18:02:07Z</time>
      </trkpt>
      <trkpt lat="59.9856931" lon="17.7383486">
        <ele>48.2034</ele>
        <time>2013-04-10T18:02:08Z</time>
      </trkpt>
      <trkpt lat="59.985708" lon="17.738353">
        <ele>48.2034</ele>
        <time>2013-04-10T18:02:09Z</time>
      </trkpt>
      <trkpt lat="59.9857247" lon="17.7383572">
        <ele>48.2034</ele>
        <time>2013-04-10T18:02:10Z</time>
      </trkpt>
      <trkpt lat="59.9857417" lon="17.7383623">
        <ele>48.2034</ele>
        <time>2013-04-10T18:02:11Z</time>
      </trkpt>
      <trkpt lat="59.9857572" lon="17.7383665">
        <ele>48.2034</ele>
        <time>2013-04-10T18:02:12Z</time>
      </trkpt>
      <trkpt lat="59.9857736" lon="17.7383738">
        <ele>48.684</ele>
        <time>2013-04-10T18:02:13Z</time>
      </trkpt>
      <trkpt lat="59.9857893" lon="17.7383844">
        <ele>48.684</ele>
        <time>2013-04-10T18:02:14Z</time>
      </trkpt>
      <trkpt lat="59.9858043" lon="17.738387">
        <ele>48.684</ele>
        <time>2013-04-10T18:02:15Z</time>
      </trkpt>
      <trkpt lat="59.9858176" lon="17.7383892">
        <ele>48.684</ele>
        <time>2013-04-10T18:02:16Z</time>
      </trkpt>
      <trkpt lat="59.9858301" lon="17.7383981">
        <ele>48.684</ele>
        <time>2013-04-10T18:02:17Z</time>
      </trkpt>
      <trkpt lat="59.9858458" lon="17.7384033">
        <ele>48.684</ele>
        <time>2013-04-10T18:02:18Z</time>
      </trkpt>
      <trkpt lat="59.9858607" lon="17.738409">
        <ele>48.684</ele>
        <time>2013-04-10T18:02:19Z</time>
      </trkpt>
      <trkpt lat="59.9858744" lon="17.7384203">
        <ele>48.684</ele>
        <time>2013-04-10T18:02:20Z</time>
      </trkpt>
      <trkpt lat="59.985891" lon="17.7384297">
        <ele>49.1646</ele>
        <time>2013-04-10T18:02:21Z</time>
      </trkpt>
      <trkpt lat="59.9859085" lon="17.7384378">
        <ele>49.1646</ele>
        <time>2013-04-10T18:02:22Z</time>
      </trkpt>
      <trkpt lat="59.9859249" lon="17.7384466">
        <ele>49.1646</ele>
        <time>2013-04-10T18:02:23Z</time>
      </trkpt>
      <trkpt lat="59.9859385" lon="17.7384534">
        <ele>49.1646</ele>
        <time>2013-04-10T18:02:24Z</time>
      </trkpt>
      <trkpt lat="59.9859549" lon="17.7384597">
        <ele>49.1646</ele>
        <time>2013-04-10T18:02:25Z</time>
      </trkpt>
      <trkpt lat="59.9859717" lon="17.7384653">
        <ele>49.1646</ele>
        <time>2013-04-10T18:02:26Z</time>
      </trkpt>
      <trkpt lat="59.9859901" lon="17.7384674">
        <ele>49.6453</ele>
        <time>2013-04-10T18:02:27Z</time>
      </trkpt>
      <trkpt lat="59.9860054" lon="17.7384659">
        <ele>49.1646</ele>
        <time>2013-04-10T18:02:28Z</time>
      </trkpt>
      <trkpt lat="59.9860209" lon="17.7384719">
        <ele>49.6453</ele>
        <time>2013-04-10T18:02:29Z</time>
      </trkpt>
      <trkpt lat="59.9860359" lon="17.7384763">
        <ele>49.6453</ele>
        <time>2013-04-10T18:02:30Z</time>
      </trkpt>
      <trkpt lat="59.9860508" lon="17.7384784">
        <ele>49.6453</ele>
        <time>2013-04-10T18:02:31Z</time>
      </trkpt>
      <trkpt lat="59.986067" lon="17.7384862">
        <ele>50.126</ele>
        <time>2013-04-10T18:02:32Z</time>
      </trkpt>
      <trkpt lat="59.9860835" lon="17.7384971">
        <ele>50.126</ele>
        <time>2013-04-10T18:02:33Z</time>
      </trkpt>
      <trkpt lat="59.9860968" lon="17.7385058">
        <ele>50.126</ele>
        <time>2013-04-10T18:02:34Z</time>
      </trkpt>
      <trkpt lat="59.9861111" lon="17.7385151">
        <ele>50.126</ele>
        <time>2013-04-10T18:02:35Z</time>
      </trkpt>
      <trkpt lat="59.9861245" lon="17.7385218">
        <ele>50.126</ele>
        <time>2013-04-10T18:02:36Z</time>
      </trkpt>
      <trkpt lat="59.9861367" lon="17.7385338">
        <ele>50.126</ele>
        <time>2013-04-10T18:02:37Z</time>
      </trkpt>
      <trkpt lat="59.9861486" lon="17.7385426">
        <ele>49.6453</ele>
        <time>2013-04-10T18:02:38Z</time>
      </trkpt>
      <trkpt lat="59.9861618" lon="17.738553">
        <ele>49.6453</ele>
        <time>2013-04-10T18:02:39Z</time>
      </trkpt>
      <trkpt lat="59.9861732" lon="17.7385633">
        <ele>49.1646</ele>
        <time>2013-04-10T18:02:40Z</time>
      </trkpt>
      <trkpt lat="59.9861882" lon="17.7385735">
        <ele>49.1646</ele>
        <time>2013-04-10T18:02:41Z</time>
      </trkpt>
      <trkpt lat="59.9862013" lon="17.738587">
        <ele>48.684</ele>
        <time>2013-04-10T18:02:42Z</time>
      </trkpt>
      <trkpt lat="59.986213" lon="17.7386">
        <ele>47.7225</ele>
        <time>2013-04-10T18:02:43Z</time>
      </trkpt>
      <trkpt lat="59.9862286" lon="17.7386146">
        <ele>47.2418</ele>
        <time>2013-04-10T18:02:44Z</time>
      </trkpt>
      <trkpt lat="59.9862452" lon="17.7386297">
        <ele>47.2418</ele>
        <time>2013-04-10T18:02:45Z</time>
      </trkpt>
      <trkpt lat="59.9862623" lon="17.738643">
        <ele>47.2418</ele>
        <time>2013-04-10T18:02:46Z</time>
      </trkpt>
      <trkpt lat="59.9862789" lon="17.7386574">
        <ele>47.7225</ele>
        <time>2013-04-10T18:02:47Z</time>
      </trkpt>
      <trkpt lat="59.9862939" lon="17.7386715">
        <ele>47.7225</ele>
        <time>2013-04-10T18:02:48Z</time>
      </trkpt>
      <trkpt lat="59.9863061" lon="17.738684">
        <ele>47.7225</ele>
        <time>2013-04-10T18:02:49Z</time>
      </trkpt>
      <trkpt lat="59.9863173" lon="17.7386944">
        <ele>47.2418</ele>
        <time>2013-04-10T18:02:50Z</time>
      </trkpt>
      <trkpt lat="59.9863313" lon="17.738699">
        <ele>46.7612</ele>
        <time>2013-04-10T18:02:51Z</time>
      </trkpt>
      <trkpt lat="59.9863442" lon="17.7387078">
        <ele>46.2806</ele>
        <time>2013-04-10T18:02:52Z</time>
      </trkpt>
      <trkpt lat="59.9863569" lon="17.738718">
        <ele>46.2806</ele>
        <time>2013-04-10T18:02:53Z</time>
      </trkpt>
      <trkpt lat="59.9863751" lon="17.7387234">
        <ele>47.2418</ele>
        <time>2013-04-10T18:02:54Z</time>
      </trkpt>
      <trkpt lat="59.986394" lon="17.7387332">
        <ele>47.7225</ele>
        <time>2013-04-10T18:02:55Z</time>
      </trkpt>
      <trkpt lat="59.9864099" lon="17.7387451">
        <ele>48.2034</ele>
        <time>2013-04-10T18:02:56Z</time>
      </trkpt>
      <trkpt lat="59.9864254" lon="17.7387577">
        <ele>48.2034</ele>
        <time>2013-04-10T18:02:57Z</time>
      </trkpt>
      <trkpt lat="59.9864405" lon="17.7387731">
        <ele>48.684</ele>
        <time>2013-04-10T18:02:58Z</time>
      </trkpt>
      <trkpt lat="59.9864556" lon="17.7387897">
        <ele>49.6453</ele>
        <time>2013-04-10T18:02:59Z</time>
      </trkpt>
      <trkpt lat="59.9864712" lon="17.7388052">
        <ele>50.126</ele>
        <time>2013-04-10T18:03:00Z</time>
      </trkpt>
      <trkpt lat="59.9864862" lon="17.7388195">
        <ele>50.6066</ele>
        <time>2013-04-10T18:03:01Z</time>
      </trkpt>
      <trkpt lat="59.9864991" lon="17.7388349">
        <ele>50.6066</ele>
        <time>2013-04-10T18:03:02Z</time>
      </trkpt>
      <trkpt lat="59.986512" lon="17.7388488">
        <ele>50.6066</ele>
        <time>2013-04-10T18:03:03Z</time>
      </trkpt>
      <trkpt lat="59.9865257" lon="17.7388627">
        <ele>50.6066</ele>
        <time>2013-04-10T18:03:04Z</time>
      </trkpt>
      <trkpt lat="59.9865403" lon="17.738869">
        <ele>51.0872</ele>
        <time>2013-04-10T18:03:05Z</time>
      </trkpt>
      <trkpt lat="59.9865565" lon="17.7388783">
        <ele>51.5679</ele>
        <time>2013-04-10T18:03:06Z</time>
      </trkpt>
      <trkpt lat="59.9865731" lon="17.7388912">
        <ele>52.0486</ele>
        <time>2013-04-10T18:03:07Z</time>
      </trkpt>
      <trkpt lat="59.986586" lon="17.7389012">
        <ele>52.0486</ele>
        <time>2013-04-10T18:03:08Z</time>
      </trkpt>
      <trkpt lat="59.9866015" lon="17.7389094">
        <ele>52.0486</ele>
        <time>2013-04-10T18:03:09Z</time>
      </trkpt>
      <trkpt lat="59.9866151" lon="17.7389187">
        <ele>51.5679</ele>
        <time>2013-04-10T18:03:10Z</time>
      </trkpt>
      <trkpt lat="59.9866288" lon="17.7389326">
        <ele>52.0486</ele>
        <time>2013-04-10T18:03:11Z</time>
      </trkpt>
      <trkpt lat="59.9866451" lon="17.7389485">
        <ele>52.5292</ele>
        <time>2013-04-10T18:03:12Z</time>
      </trkpt>
      <trkpt lat="59.9866617" lon="17.7389627">
        <ele>53.0098</ele>
        <time>2013-04-10T18:03:13Z</time>
      </trkpt>
      <trkpt lat="59.9866772" lon="17.7389755">
        <ele>53.4905</ele>
        <time>2013-04-10T18:03:14Z</time>
      </trkpt>
      <trkpt lat="59.986692" lon="17.7389907">
        <ele>53.9712</ele>
        <time>2013-04-10T18:03:15Z</time>
      </trkpt>
      <trkpt lat="59.9867042" lon="17.7390098">
        <ele>53.9712</ele>
        <time>2013-04-10T18:03:16Z</time>
      </trkpt>
      <trkpt lat="59.9867134" lon="17.7390242">
        <ele>53.9712</ele>
        <time>2013-04-10T18:03:17Z</time>
      </trkpt>
      <trkpt lat="59.9867253" lon="17.7390388">
        <ele>53.9712</ele>
        <time>2013-04-10T18:03:18Z</time>
      </trkpt>
      <trkpt lat="59.9867404" lon="17.739057">
        <ele>54.4518</ele>
        <time>2013-04-10T18:03:19Z</time>
      </trkpt>
      <trkpt lat="59.9867517" lon="17.7390694">
        <ele>54.4518</ele>
        <time>2013-04-10T18:03:20Z</time>
      </trkpt>
      <trkpt lat="59.986761" lon="17.7390813">
        <ele>53.9712</ele>
        <time>2013-04-10T18:03:21Z</time>
      </trkpt>
      <trkpt lat="59.9867709" lon="17.7391004">
        <ele>54.9324</ele>
        <time>2013-04-10T18:03:22Z</time>
      </trkpt>
      <trkpt lat="59.9867833" lon="17.7391189">
        <ele>54.9324</ele>
        <time>2013-04-10T18:03:23Z</time>
      </trkpt>
      <trkpt lat="59.9867996" lon="17.739131">
        <ele>54.9324</ele>
        <time>2013-04-10T18:03:24Z</time>
      </trkpt>
      <trkpt lat="59.9868155" lon="17.7391454">
        <ele>54.9324</ele>
        <time>2013-04-10T18:03:25Z</time>
      </trkpt>
      <trkpt lat="59.9868286" lon="17.7391597">
        <ele>54.4518</ele>
        <time>2013-04-10T18:03:26Z</time>
      </trkpt>
      <trkpt lat="59.9868421" lon="17.7391735">
        <ele>54.9324</ele>
        <time>2013-04-10T18:03:27Z</time>
      </trkpt>
      <trkpt lat="59.9868552" lon="17.7391861">
        <ele>54.9324</ele>
        <time>2013-04-10T18:03:28Z</time>
      </trkpt>
      <trkpt lat="59.9868683" lon="17.7391994">
        <ele>55.4131</ele>
        <time>2013-04-10T18:03:29Z</time>
      </trkpt>
      <trkpt lat="59.9868839" lon="17.7392108">
        <ele>55.4131</ele>
        <time>2013-04-10T18:03:30Z</time>
      </trkpt>
      <trkpt lat="59.9868987" lon="17.7392189">
        <ele>54.9324</ele>
        <time>2013-04-10T18:03:31Z</time>
      </trkpt>
      <trkpt lat="59.986913" lon="17.739226">
        <ele>54.4518</ele>
        <time>2013-04-10T18:03:32Z</time>
      </trkpt>
      <trkpt lat="59.9869265" lon="17.7392296">
        <ele>53.9712</ele>
        <time>2013-04-10T18:03:33Z</time>
      </trkpt>
      <trkpt lat="59.9869398" lon="17.7392332">
        <ele>53.4905</ele>
        <time>2013-04-10T18:03:34Z</time>
      </trkpt>
      <trkpt lat="59.9869537" lon="17.739245">
        <ele>53.4905</ele>
        <time>2013-04-10T18:03:35Z</time>
      </trkpt>
      <trkpt lat="59.9869669" lon="17.7392567">
        <ele>53.4905</ele>
        <time>2013-04-10T18:03:36Z</time>
      </trkpt>
      <trkpt lat="59.9869802" lon="17.7392682">
        <ele>53.4905</ele>
        <time>2013-04-10T18:03:37Z</time>
      </trkpt>
      <trkpt lat="59.9869948" lon="17.739278">
        <ele>53.9712</ele>
        <time>2013-04-10T18:03:38Z</time>
      </trkpt>
      <trkpt lat="59.9870102" lon="17.7392886">
        <ele>53.9712</ele>
        <time>2013-04-10T18:03:39Z</time>
      </trkpt>
      <trkpt lat="59.9870262" lon="17.7393009">
        <ele>54.4518</ele>
        <time>2013-04-10T18:03:40Z</time>
      </trkpt>
      <trkpt lat="59.9870406" lon="17.7393108">
        <ele>54.4518</ele>
        <time>2013-04-10T18:03:41Z</time>
      </trkpt>
      <trkpt lat="59.9870533" lon="17.7393185">
        <ele>54.4518</ele>
        <time>2013-04-10T18:03:42Z</time>
      </trkpt>
      <trkpt lat="59.9870697" lon="17.7393228">
        <ele>54.4518</ele>
        <time>2013-04-10T18:03:43Z</time>
      </trkpt>
      <trkpt lat="59.9870852" lon="17.7393259">
        <ele>54.4518</ele>
        <time>2013-04-10T18:03:44Z</time>
      </trkpt>
      <trkpt lat="59.9871041" lon="17.7393324">
        <ele>54.9324</ele>
        <time>2013-04-10T18:03:45Z</time>
      </trkpt>
      <trkpt lat="59.9871197" lon="17.739335">
        <ele>55.4131</ele>
        <time>2013-04-10T18:03:46Z</time>
      </trkpt>
      <trkpt lat="59.9871335" lon="17.7393355">
        <ele>55.8938</ele>
        <time>2013-04-10T18:03:47Z</time>
      </trkpt>
      <trkpt lat="59.9871477" lon="17.7393402">
        <ele>56.3745</ele>
        <time>2013-04-10T18:03:48Z</time>
      </trkpt>
      <trkpt lat="59.9871585" lon="17.7393344">
        <ele>55.8938</ele>
        <time>2013-04-10T18:03:49Z</time>
      </trkpt>
      <trkpt lat="59.9871714" lon="17.7393263">
        <ele>55.4131</ele>
        <time>2013-04-10T18:03:50Z</time>
      </trkpt>
      <trkpt lat="59.9871865" lon="17.7393289">
        <ele>55.4131</ele>
        <time>2013-04-10T18:03:51Z</time>
      </trkpt>
      <trkpt lat="59.9871992" lon="17.7393309">
        <ele>54.9324</ele>
        <time>2013-04-10T18:03:52Z</time>
      </trkpt>
      <trkpt lat="59.9872134" lon="17.7393408">
        <ele>55.4131</ele>
        <time>2013-04-10T18:03:53Z</time>
      </trkpt>
      <trkpt lat="59.9872316" lon="17.7393445">
        <ele>55.8938</ele>
        <time>2013-04-10T18:03:54Z</time>
      </trkpt>
      <trkpt lat="59.9872492" lon="17.739346">
        <ele>55.8938</ele>
        <time>2013-04-10T18:03:55Z</time>
      </trkpt>
      <trkpt lat="59.9872644" lon="17.7393422">
        <ele>54.9324</ele>
        <time>2013-04-10T18:03:56Z</time>
      </trkpt>
      <trkpt lat="59.9872833" lon="17.7393389">
        <ele>54.9324</ele>
        <time>2013-04-10T18:03:57Z</time>
      </trkpt>
      <trkpt lat="59.9872998" lon="17.7393346">
        <ele>54.9324</ele>
        <time>2013-04-10T18:03:58Z</time>
      </trkpt>
      <trkpt lat="59.9873139" lon="17.7393336">
        <ele>54.9324</ele>
        <time>2013-04-10T18:03:59Z</time>
      </trkpt>
      <trkpt lat="59.9873273" lon="17.7393353">
        <ele>54.4518</ele>
        <time>2013-04-10T18:04:00Z</time>
      </trkpt>
      <trkpt lat="59.9873382" lon="17.7393287">
        <ele>54.9324</ele>
        <time>2013-04-10T18:04:01Z</time>
      </trkpt>
      <trkpt lat="59.987352" lon="17.7393222">
        <ele>54.9324</ele>
        <time>2013-04-10T18:04:02Z</time>
      </trkpt>
      <trkpt lat="59.9873654" lon="17.7393168">
        <ele>54.4518</ele>
        <time>2013-04-10T18:04:03Z</time>
      </trkpt>
      <trkpt lat="59.9873825" lon="17.7393164">
        <ele>54.4518</ele>
        <time>2013-04-10T18:04:04Z</time>
      </trkpt>
      <trkpt lat="59.9874023" lon="17.739319">
        <ele>54.4518</ele>
        <time>2013-04-10T18:04:05Z</time>
      </trkpt>
      <trkpt lat="59.9874167" lon="17.7393222">
        <ele>53.9712</ele>
        <time>2013-04-10T18:04:06Z</time>
      </trkpt>
      <trkpt lat="59.9874329" lon="17.739322">
        <ele>54.4518</ele>
        <time>2013-04-10T18:04:07Z</time>
      </trkpt>
      <trkpt lat="59.98745" lon="17.7393176">
        <ele>53.9712</ele>
        <time>2013-04-10T18:04:08Z</time>
      </trkpt>
      <trkpt lat="59.9874683" lon="17.7393128">
        <ele>53.9712</ele>
        <time>2013-04-10T18:04:09Z</time>
      </trkpt>
      <trkpt lat="59.98748" lon="17.7393113">
        <ele>53.4905</ele>
        <time>2013-04-10T18:04:10Z</time>
      </trkpt>
      <trkpt lat="59.9874983" lon="17.7393046">
        <ele>53.9712</ele>
        <time>2013-04-10T18:04:11Z</time>
      </trkpt>
      <trkpt lat="59.9875132" lon="17.7393037">
        <ele>54.9324</ele>
        <time>2013-04-10T18:04:12Z</time>
      </trkpt>
      <trkpt lat="59.9875193" lon="17.7393072">
        <ele>54.9324</ele>
        <time>2013-04-10T18:04:13Z</time>
      </trkpt>
      <trkpt lat="59.9875284" lon="17.7393041">
        <ele>54.9324</ele>
        <time>2013-04-10T18:04:14Z</time>
      </trkpt>
      <trkpt lat="59.9875439" lon="17.7393015">
        <ele>54.9324</ele>
        <time>2013-04-10T18:04:15Z</time>
      </trkpt>
      <trkpt lat="59.9875579" lon="17.7393024">
        <ele>55.4131</ele>
        <time>2013-04-10T18:04:16Z</time>
      </trkpt>
      <trkpt lat="59.9875758" lon="17.7393004">
        <ele>55.4131</ele>
        <time>2013-04-10T18:04:17Z</time>
      </trkpt>
      <trkpt lat="59.987591" lon="17.739303">
        <ele>55.4131</ele>
        <time>2013-04-10T18:04:18Z</time>
      </trkpt>
      <trkpt lat="59.9876082" lon="17.7392988">
        <ele>55.8938</ele>
        <time>2013-04-10T18:04:19Z</time>
      </trkpt>
      <trkpt lat="59.9876247" lon="17.7392952">
        <ele>55.8938</ele>
        <time>2013-04-10T18:04:20Z</time>
      </trkpt>
      <trkpt lat="59.987638" lon="17.7392905">
        <ele>55.8938</ele>
        <time>2013-04-10T18:04:21Z</time>
      </trkpt>
      <trkpt lat="59.9876472" lon="17.7392916">
        <ele>55.8938</ele>
        <time>2013-04-10T18:04:22Z</time>
      </trkpt>
      <trkpt lat="59.9876615" lon="17.7392868">
        <ele>55.8938</ele>
        <time>2013-04-10T18:04:23Z</time>
      </trkpt>
      <trkpt lat="59.9876744" lon="17.7392803">
        <ele>55.8938</ele>
        <time>2013-04-10T18:04:24Z</time>
      </trkpt>
      <trkpt lat="59.9876909" lon="17.7392814">
        <ele>56.3745</ele>
        <time>2013-04-10T18:04:25Z</time>
      </trkpt>
      <trkpt lat="59.9877099" lon="17.739275">
        <ele>56.3745</ele>
        <time>2013-04-10T18:04:26Z</time>
      </trkpt>
      <trkpt lat="59.9877211" lon="17.7392702">
        <ele>55.8938</ele>
        <time>2013-04-10T18:04:27Z</time>
      </trkpt>
      <trkpt lat="59.9877343" lon="17.7392684">
        <ele>55.4131</ele>
        <time>2013-04-10T18:04:28Z</time>
      </trkpt>
      <trkpt lat="59.987748" lon="17.7392681">
        <ele>55.8938</ele>
        <time>2013-04-10T18:04:29Z</time>
      </trkpt>
      <trkpt lat="59.9877639" lon="17.739266">
        <ele>55.8938</ele>
        <time>2013-04-10T18:04:30Z</time>
      </trkpt>
      <trkpt lat="59.9877805" lon="17.7392607">
        <ele>55.8938</ele>
        <time>2013-04-10T18:04:31Z</time>
      </trkpt>
      <trkpt lat="59.9877935" lon="17.7392576">
        <ele>54.9324</ele>
        <time>2013-04-10T18:04:32Z</time>
      </trkpt>
      <trkpt lat="59.9878079" lon="17.7392549">
        <ele>54.4518</ele>
        <time>2013-04-10T18:04:33Z</time>
      </trkpt>
      <trkpt lat="59.9878244" lon="17.7392512">
        <ele>54.9324</ele>
        <time>2013-04-10T18:04:34Z</time>
      </trkpt>
      <trkpt lat="59.9878427" lon="17.7392471">
        <ele>55.4131</ele>
        <time>2013-04-10T18:04:35Z</time>
      </trkpt>
      <trkpt lat="59.9878607" lon="17.739242">
        <ele>55.8938</ele>
        <time>2013-04-10T18:04:36Z</time>
      </trkpt>
      <trkpt lat="59.9878719" lon="17.7392443">
        <ele>56.3745</ele>
        <time>2013-04-10T18:04:37Z</time>
      </trkpt>
      <trkpt lat="59.9878855" lon="17.739244">
        <ele>56.3745</ele>
        <time>2013-04-10T18:04:38Z</time>
      </trkpt>
      <trkpt lat="59.9878998" lon="17.7392409">
        <ele>56.3745</ele>
        <time>2013-04-10T18:04:39Z</time>
      </trkpt>
      <trkpt lat="59.9879189" lon="17.7392352">
        <ele>57.3358</ele>
        <time>2013-04-10T18:04:40Z</time>
      </trkpt>
      <trkpt lat="59.9879318" lon="17.7392331">
        <ele>57.3358</ele>
        <time>2013-04-10T18:04:41Z</time>
      </trkpt>
      <trkpt lat="59.9879505" lon="17.739228">
        <ele>57.8165</ele>
        <time>2013-04-10T18:04:42Z</time>
      </trkpt>
      <trkpt lat="59.9879622" lon="17.7392238">
        <ele>58.2971</ele>
        <time>2013-04-10T18:04:43Z</time>
      </trkpt>
      <trkpt lat="59.9879774" lon="17.7392179">
        <ele>59.2584</ele>
        <time>2013-04-10T18:04:44Z</time>
      </trkpt>
      <trkpt lat="59.9879877" lon="17.739217">
        <ele>59.2584</ele>
        <time>2013-04-10T18:04:45Z</time>
      </trkpt>
      <trkpt lat="59.9880021" lon="17.7392139">
        <ele>59.7391</ele>
        <time>2013-04-10T18:04:46Z</time>
      </trkpt>
      <trkpt lat="59.9880168" lon="17.7392107">
        <ele>60.7003</ele>
        <time>2013-04-10T18:04:47Z</time>
      </trkpt>
      <trkpt lat="59.9880347" lon="17.7392044">
        <ele>61.181</ele>
        <time>2013-04-10T18:04:48Z</time>
      </trkpt>
      <trkpt lat="59.9880453" lon="17.7391942">
        <ele>61.181</ele>
        <time>2013-04-10T18:04:49Z</time>
      </trkpt>
      <trkpt lat="59.9880668" lon="17.7391951">
        <ele>61.181</ele>
        <time>2013-04-10T18:04:50Z</time>
      </trkpt>
      <trkpt lat="59.988082" lon="17.7391988">
        <ele>61.181</ele>
        <time>2013-04-10T18:04:51Z</time>
      </trkpt>
      <trkpt lat="59.9880959" lon="17.7392014">
        <ele>61.181</ele>
        <time>2013-04-10T18:04:52Z</time>
      </trkpt>
      <trkpt lat="59.9881095" lon="17.7392013">
        <ele>61.181</ele>
        <time>2013-04-10T18:04:53Z</time>
      </trkpt>
      <trkpt lat="59.9881209" lon="17.739202">
        <ele>60.7003</ele>
        <time>2013-04-10T18:04:54Z</time>
      </trkpt>
      <trkpt lat="59.9881297" lon="17.7392014">
        <ele>60.2197</ele>
        <time>2013-04-10T18:04:55Z</time>
      </trkpt>
      <trkpt lat="59.98814" lon="17.7391925">
        <ele>60.2197</ele>
        <time>2013-04-10T18:04:56Z</time>
      </trkpt>
      <trkpt lat="59.9881539" lon="17.7391824">
        <ele>60.2197</ele>
        <time>2013-04-10T18:04:57Z</time>
      </trkpt>
      <trkpt lat="59.9881732" lon="17.7391829">
        <ele>60.2197</ele>
        <time>2013-04-10T18:04:58Z</time>
      </trkpt>
      <trkpt lat="59.9881899" lon="17.7391747">
        <ele>59.7391</ele>
        <time>2013-04-10T18:04:59Z</time>
      </trkpt>
      <trkpt lat="59.9882063" lon="17.7391669">
        <ele>59.7391</ele>
        <time>2013-04-10T18:05:00Z</time>
      </trkpt>
      <trkpt lat="59.9882224" lon="17.7391673">
        <ele>59.7391</ele>
        <time>2013-04-10T18:05:01Z</time>
      </trkpt>
      <trkpt lat="59.9882385" lon="17.7391676">
        <ele>59.7391</ele>
        <time>2013-04-10T18:05:02Z</time>
      </trkpt>
      <trkpt lat="59.9882571" lon="17.7391683">
        <ele>59.2584</ele>
        <time>2013-04-10T18:05:03Z</time>
      </trkpt>
      <trkpt lat="59.9882762" lon="17.7391664">
        <ele>58.7777</ele>
        <time>2013-04-10T18:05:04Z</time>
      </trkpt>
      <trkpt lat="59.9882893" lon="17.739158">
        <ele>58.7777</ele>
        <time>2013-04-10T18:05:05Z</time>
      </trkpt>
      <trkpt lat="59.9883015" lon="17.7391512">
        <ele>58.2971</ele>
        <time>2013-04-10T18:05:06Z</time>
      </trkpt>
      <trkpt lat="59.9883126" lon="17.7391384">
        <ele>58.2971</ele>
        <time>2013-04-10T18:05:07Z</time>
      </trkpt>
      <trkpt lat="59.9883272" lon="17.7391274">
        <ele>57.3358</ele>
        <time>2013-04-10T18:05:08Z</time>
      </trkpt>
      <trkpt lat="59.9883419" lon="17.7391171">
        <ele>57.3358</ele>
        <time>2013-04-10T18:05:09Z</time>
      </trkpt>
      <trkpt lat="59.9883555" lon="17.739106">
        <ele>57.3358</ele>
        <time>2013-04-10T18:05:10Z</time>
      </trkpt>
      <trkpt lat="59.9883756" lon="17.7390979">
        <ele>56.8551</ele>
        <time>2013-04-10T18:05:11Z</time>
      </trkpt>
      <trkpt lat="59.9883917" lon="17.7390957">
        <ele>56.8551</ele>
        <time>2013-04-10T18:05:12Z</time>
      </trkpt>
      <trkpt lat="59.9884041" lon="17.7390917">
        <ele>56.3745</ele>
        <time>2013-04-10T18:05:13Z</time>
      </trkpt>
      <trkpt lat="59.9884149" lon="17.7390933">
        <ele>55.8938</ele>
        <time>2013-04-10T18:05:14Z</time>
      </trkpt>
      <trkpt lat="59.9884263" lon="17.7390843">
        <ele>55.4131</ele>
        <time>2013-04-10T18:05:15Z</time>
      </trkpt>
      <trkpt lat="59.9884388" lon="17.7390853">
        <ele>55.4131</ele>
        <time>2013-04-10T18:05:16Z</time>
      </trkpt>
      <trkpt lat="59.9884514" lon="17.7390713">
        <ele>55.8938</ele>
        <time>2013-04-10T18:05:17Z</time>
      </trkpt>
      <trkpt lat="59.9884636" lon="17.7390543">
        <ele>55.8938</ele>
        <time>2013-04-10T18:05:18Z</time>
      </trkpt>
      <trkpt lat="59.9884807" lon="17.7390433">
        <ele>55.8938</ele>
        <time>2013-04-10T18:05:19Z</time>
      </trkpt>
      <trkpt lat="59.9884973" lon="17.7390288">
        <ele>55.8938</ele>
        <time>2013-04-10T18:05:20Z</time>
      </trkpt>
      <trkpt lat="59.9885154" lon="17.7390187">
        <ele>55.8938</ele>
        <time>2013-04-10T18:05:21Z</time>
      </trkpt>
      <trkpt lat="59.9885322" lon="17.7390109">
        <ele>56.3745</ele>
        <time>2013-04-10T18:05:22Z</time>
      </trkpt>
      <trkpt lat="59.9885458" lon="17.7389962">
        <ele>56.3745</ele>
        <time>2013-04-10T18:05:23Z</time>
      </trkpt>
      <trkpt lat="59.9885627" lon="17.7389829">
        <ele>56.8551</ele>
        <time>2013-04-10T18:05:24Z</time>
      </trkpt>
      <trkpt lat="59.988575" lon="17.738967">
        <ele>56.8551</ele>
        <time>2013-04-10T18:05:25Z</time>
      </trkpt>
      <trkpt lat="59.9885887" lon="17.7389526">
        <ele>56.8551</ele>
        <time>2013-04-10T18:05:26Z</time>
      </trkpt>
      <trkpt lat="59.988603" lon="17.7389407">
        <ele>56.8551</ele>
        <time>2013-04-10T18:05:27Z</time>
      </trkpt>
      <trkpt lat="59.9886173" lon="17.7389229">
        <ele>57.3358</ele>
        <time>2013-04-10T18:05:28Z</time>
      </trkpt>
      <trkpt lat="59.9886268" lon="17.7389153">
        <ele>57.3358</ele>
        <time>2013-04-10T18:05:29Z</time>
      </trkpt>
      <trkpt lat="59.9886378" lon="17.7389091">
        <ele>57.3358</ele>
        <time>2013-04-10T18:05:30Z</time>
      </trkpt>
      <trkpt lat="59.9886455" lon="17.7389076">
        <ele>56.8551</ele>
        <time>2013-04-10T18:05:31Z</time>
      </trkpt>
      <trkpt lat="59.9886543" lon="17.7388975">
        <ele>55.8938</ele>
        <time>2013-04-10T18:05:32Z</time>
      </trkpt>
      <trkpt lat="59.9886659" lon="17.738888">
        <ele>55.8938</ele>
        <time>2013-04-10T18:05:33Z</time>
      </trkpt>
      <trkpt lat="59.9886825" lon="17.7388746">
        <ele>56.3745</ele>
        <time>2013-04-10T18:05:34Z</time>
      </trkpt>
      <trkpt lat="59.9886996" lon="17.738858">
        <ele>56.8551</ele>
        <time>2013-04-10T18:05:35Z</time>
      </trkpt>
      <trkpt lat="59.9887171" lon="17.7388444">
        <ele>56.8551</ele>
        <time>2013-04-10T18:05:36Z</time>
      </trkpt>
      <trkpt lat="59.9887336" lon="17.738833">
        <ele>57.3358</ele>
        <time>2013-04-10T18:05:37Z</time>
      </trkpt>
      <trkpt lat="59.9887488" lon="17.738817">
        <ele>57.3358</ele>
        <time>2013-04-10T18:05:38Z</time>
      </trkpt>
      <trkpt lat="59.9887679" lon="17.7388156">
        <ele>57.3358</ele>
        <time>2013-04-10T18:05:39Z</time>
      </trkpt>
      <trkpt lat="59.9887761" lon="17.7388071">
        <ele>57.8165</ele>
        <time>2013-04-10T18:05:40Z</time>
      </trkpt>
      <trkpt lat="59.9887921" lon="17.7388032">
        <ele>57.3358</ele>
        <time>2013-04-10T18:05:41Z</time>
      </trkpt>
      <trkpt lat="59.9888076" lon="17.7387975">
        <ele>57.3358</ele>
        <time>2013-04-10T18:05:42Z</time>
      </trkpt>
      <trkpt lat="59.9888276" lon="17.7387858">
        <ele>57.3358</ele>
        <time>2013-04-10T18:05:43Z</time>
      </trkpt>
      <trkpt lat="59.9888475" lon="17.7387704">
        <ele>57.3358</ele>
        <time>2013-04-10T18:05:44Z</time>
      </trkpt>
      <trkpt lat="59.9888649" lon="17.738756">
        <ele>57.3358</ele>
        <time>2013-04-10T18:05:45Z</time>
      </trkpt>
      <trkpt lat="59.9888853" lon="17.738748">
        <ele>56.8551</ele>
        <time>2013-04-10T18:05:46Z</time>
      </trkpt>
      <trkpt lat="59.9889041" lon="17.7387425">
        <ele>56.8551</ele>
        <time>2013-04-10T18:05:47Z</time>
      </trkpt>
      <trkpt lat="59.9889242" lon="17.7387311">
        <ele>56.8551</ele>
        <time>2013-04-10T18:05:48Z</time>
      </trkpt>
      <trkpt lat="59.9889446" lon="17.7387259">
        <ele>56.8551</ele>
        <time>2013-04-10T18:05:49Z</time>
      </trkpt>
      <trkpt lat="59.988958" lon="17.7387092">
        <ele>56.3745</ele>
        <time>2013-04-10T18:05:50Z</time>
      </trkpt>
      <trkpt lat="59.9889744" lon="17.7386965">
        <ele>56.3745</ele>
        <time>2013-04-10T18:05:51Z</time>
      </trkpt>
      <trkpt lat="59.9889881" lon="17.7386829">
        <ele>56.3745</ele>
        <time>2013-04-10T18:05:52Z</time>
      </trkpt>
      <trkpt lat="59.9890027" lon="17.7386732">
        <ele>55.8938</ele>
        <time>2013-04-10T18:05:53Z</time>
      </trkpt>
      <trkpt lat="59.9890163" lon="17.7386613">
        <ele>56.8551</ele>
        <time>2013-04-10T18:05:54Z</time>
      </trkpt>
      <trkpt lat="59.9890295" lon="17.7386527">
        <ele>56.3745</ele>
        <time>2013-04-10T18:05:55Z</time>
      </trkpt>
      <trkpt lat="59.9890471" lon="17.7386455">
        <ele>56.8551</ele>
        <time>2013-04-10T18:05:56Z</time>
      </trkpt>
      <trkpt lat="59.9890635" lon="17.7386353">
        <ele>56.8551</ele>
        <time>2013-04-10T18:05:57Z</time>
      </trkpt>
      <trkpt lat="59.9890823" lon="17.7386264">
        <ele>57.3358</ele>
        <time>2013-04-10T18:05:58Z</time>
      </trkpt>
      <trkpt lat="59.989098" lon="17.7386207">
        <ele>57.8165</ele>
        <time>2013-04-10T18:05:59Z</time>
      </trkpt>
      <trkpt lat="59.9891106" lon="17.738614">
        <ele>57.3358</ele>
        <time>2013-04-10T18:06:00Z</time>
      </trkpt>
      <trkpt lat="59.9891218" lon="17.7386042">
        <ele>56.8551</ele>
        <time>2013-04-10T18:06:01Z</time>
      </trkpt>
      <trkpt lat="59.9891352" lon="17.7386002">
        <ele>56.8551</ele>
        <time>2013-04-10T18:06:02Z</time>
      </trkpt>
      <trkpt lat="59.9891491" lon="17.7385937">
        <ele>56.8551</ele>
        <time>2013-04-10T18:06:03Z</time>
      </trkpt>
      <trkpt lat="59.9891617" lon="17.7385855">
        <ele>56.8551</ele>
        <time>2013-04-10T18:06:04Z</time>
      </trkpt>
      <trkpt lat="59.989179" lon="17.7385715">
        <ele>56.8551</ele>
        <time>2013-04-10T18:06:05Z</time>
      </trkpt>
      <trkpt lat="59.9891941" lon="17.7385647">
        <ele>56.8551</ele>
        <time>2013-04-10T18:06:06Z</time>
      </trkpt>
      <trkpt lat="59.9892077" lon="17.7385565">
        <ele>56.8551</ele>
        <time>2013-04-10T18:06:07Z</time>
      </trkpt>
      <trkpt lat="59.9892261" lon="17.738546">
        <ele>56.8551</ele>
        <time>2013-04-10T18:06:08Z</time>
      </trkpt>
      <trkpt lat="59.9892414" lon="17.7385388">
        <ele>56.8551</ele>
        <time>2013-04-10T18:06:09Z</time>
      </trkpt>
      <trkpt lat="59.989256" lon="17.7385357">
        <ele>56.8551</ele>
        <time>2013-04-10T18:06:10Z</time>
      </trkpt>
      <trkpt lat="59.9892693" lon="17.7385331">
        <ele>56.8551</ele>
        <time>2013-04-10T18:06:11Z</time>
      </trkpt>
      <trkpt lat="59.9892839" lon="17.7385315">
        <ele>56.3745</ele>
        <time>2013-04-10T18:06:12Z</time>
      </trkpt>
      <trkpt lat="59.9892983" lon="17.7385302">
        <ele>56.3745</ele>
        <time>2013-04-10T18:06:13Z</time>
      </trkpt>
      <trkpt lat="59.9893149" lon="17.7385269">
        <ele>56.3745</ele>
        <time>2013-04-10T18:06:14Z</time>
      </trkpt>
      <trkpt lat="59.9893305" lon="17.7385126">
        <ele>56.3745</ele>
        <time>2013-04-10T18:06:15Z</time>
      </trkpt>
      <trkpt lat="59.9893434" lon="17.7384982">
        <ele>56.3745</ele>
        <time>2013-04-10T18:06:16Z</time>
      </trkpt>
      <trkpt lat="59.9893578" lon="17.7384929">
        <ele>56.3745</ele>
        <time>2013-04-10T18:06:17Z</time>
      </trkpt>
      <trkpt lat="59.9893709" lon="17.738496">
        <ele>56.3745</ele>
        <time>2013-04-10T18:06:18Z</time>
      </trkpt>
      <trkpt lat="59.9893848" lon="17.7384987">
        <ele>56.3745</ele>
        <time>2013-04-10T18:06:19Z</time>
      </trkpt>
      <trkpt lat="59.9894033" lon="17.738501">
        <ele>56.3745</ele>
        <time>2013-04-10T18:06:20Z</time>
      </trkpt>
      <trkpt lat="59.9894201" lon="17.7385036">
        <ele>56.3745</ele>
        <time>2013-04-10T18:06:21Z</time>
      </trkpt>
      <trkpt lat="59.9894359" lon="17.7385017">
        <ele>55.8938</ele>
        <time>2013-04-10T18:06:22Z</time>
      </trkpt>
      <trkpt lat="59.9894497" lon="17.7384928">
        <ele>55.8938</ele>
        <time>2013-04-10T18:06:23Z</time>
      </trkpt>
      <trkpt lat="59.989462" lon="17.7384792">
        <ele>55.8938</ele>
        <time>2013-04-10T18:06:24Z</time>
      </trkpt>
      <trkpt lat="59.9894751" lon="17.7384583">
        <ele>55.8938</ele>
        <time>2013-04-10T18:06:25Z</time>
      </trkpt>
      <trkpt lat="59.9894921" lon="17.7384525">
        <ele>55.8938</ele>
        <time>2013-04-10T18:06:26Z</time>
      </trkpt>
      <trkpt lat="59.9895071" lon="17.7384492">
        <ele>55.8938</ele>
        <time>2013-04-10T18:06:27Z</time>
      </trkpt>
      <trkpt lat="59.9895243" lon="17.7384443">
        <ele>55.8938</ele>
        <time>2013-04-10T18:06:28Z</time>
      </trkpt>
      <trkpt lat="59.9895419" lon="17.7384389">
        <ele>55.8938</ele>
        <time>2013-04-10T18:06:29Z</time>
      </trkpt>
      <trkpt lat="59.9895584" lon="17.7384346">
        <ele>56.3745</ele>
        <time>2013-04-10T18:06:30Z</time>
      </trkpt>
      <trkpt lat="59.9895713" lon="17.7384225">
        <ele>56.8551</ele>
        <time>2013-04-10T18:06:31Z</time>
      </trkpt>
      <trkpt lat="59.9895802" lon="17.7384054">
        <ele>56.3745</ele>
        <time>2013-04-10T18:06:32Z</time>
      </trkpt>
      <trkpt lat="59.9895924" lon="17.7383913">
        <ele>56.3745</ele>
        <time>2013-04-10T18:06:33Z</time>
      </trkpt>
      <trkpt lat="59.9896131" lon="17.738384">
        <ele>57.3358</ele>
        <time>2013-04-10T18:06:34Z</time>
      </trkpt>
      <trkpt lat="59.9896299" lon="17.7383797">
        <ele>57.8165</ele>
        <time>2013-04-10T18:06:35Z</time>
      </trkpt>
      <trkpt lat="59.989646" lon="17.7383789">
        <ele>58.2971</ele>
        <time>2013-04-10T18:06:36Z</time>
      </trkpt>
      <trkpt lat="59.9896633" lon="17.7383768">
        <ele>58.7777</ele>
        <time>2013-04-10T18:06:37Z</time>
      </trkpt>
      <trkpt lat="59.989676" lon="17.7383764">
        <ele>59.2584</ele>
        <time>2013-04-10T18:06:38Z</time>
      </trkpt>
      <trkpt lat="59.9896932" lon="17.7383689">
        <ele>59.7391</ele>
        <time>2013-04-10T18:06:39Z</time>
      </trkpt>
      <trkpt lat="59.9897139" lon="17.7383616">
        <ele>60.7003</ele>
        <time>2013-04-10T18:06:40Z</time>
      </trkpt>
      <trkpt lat="59.9897309" lon="17.7383473">
        <ele>60.7003</ele>
        <time>2013-04-10T18:06:41Z</time>
      </trkpt>
      <trkpt lat="59.9897462" lon="17.7383451">
        <ele>60.7003</ele>
        <time>2013-04-10T18:06:42Z</time>
      </trkpt>
      <trkpt lat="59.9897605" lon="17.7383365">
        <ele>60.2197</ele>
        <time>2013-04-10T18:06:43Z</time>
      </trkpt>
      <trkpt lat="59.989775" lon="17.7383264">
        <ele>60.2197</ele>
        <time>2013-04-10T18:06:44Z</time>
      </trkpt>
      <trkpt lat="59.9897884" lon="17.7383183">
        <ele>60.2197</ele>
        <time>2013-04-10T18:06:45Z</time>
      </trkpt>
      <trkpt lat="59.9898032" lon="17.7383183">
        <ele>60.2197</ele>
        <time>2013-04-10T18:06:46Z</time>
      </trkpt>
      <trkpt lat="59.9898174" lon="17.7383137">
        <ele>59.7391</ele>
        <time>2013-04-10T18:06:47Z</time>
      </trkpt>
      <trkpt lat="59.9898317" lon="17.7383172">
        <ele>58.7777</ele>
        <time>2013-04-10T18:06:48Z</time>
      </trkpt>
      <trkpt lat="59.9898473" lon="17.7383178">
        <ele>58.2971</ele>
        <time>2013-04-10T18:06:49Z</time>
      </trkpt>
      <trkpt lat="59.9898619" lon="17.7383178">
        <ele>58.2971</ele>
        <time>2013-04-10T18:06:50Z</time>
      </trkpt>
      <trkpt lat="59.9898768" lon="17.7383173">
        <ele>58.2971</ele>
        <time>2013-04-10T18:06:51Z</time>
      </trkpt>
      <trkpt lat="59.9898908" lon="17.7383147">
        <ele>57.3358</ele>
        <time>2013-04-10T18:06:52Z</time>
      </trkpt>
      <trkpt lat="59.9899052" lon="17.7383103">
        <ele>57.3358</ele>
        <time>2013-04-10T18:06:53Z</time>
      </trkpt>
      <trkpt lat="59.9899159" lon="17.7383129">
        <ele>57.3358</ele>
        <time>2013-04-10T18:06:54Z</time>
      </trkpt>
      <trkpt lat="59.9899288" lon="17.7383192">
        <ele>56.8551</ele>
        <time>2013-04-10T18:06:55Z</time>
      </trkpt>
      <trkpt lat="59.9899462" lon="17.7383192">
        <ele>56.8551</ele>
        <time>2013-04-10T18:06:56Z</time>
      </trkpt>
      <trkpt lat="59.9899635" lon="17.7383135">
        <ele>56.8551</ele>
        <time>2013-04-10T18:06:57Z</time>
      </trkpt>
      <trkpt lat="59.9899757" lon="17.738294">
        <ele>56.3745</ele>
        <time>2013-04-10T18:06:58Z</time>
      </trkpt>
      <trkpt lat="59.9899904" lon="17.7382826">
        <ele>56.3745</ele>
        <time>2013-04-10T18:06:59Z</time>
      </trkpt>
      <trkpt lat="59.9900045" lon="17.7382758">
        <ele>56.3745</ele>
        <time>2013-04-10T18:07:00Z</time>
      </trkpt>
      <trkpt lat="59.9900158" lon="17.7382632">
        <ele>56.3745</ele>
        <time>2013-04-10T18:07:01Z</time>
      </trkpt>
      <trkpt lat="59.9900236" lon="17.7382503">
        <ele>56.3745</ele>
        <time>2013-04-10T18:07:02Z</time>
      </trkpt>
      <trkpt lat="59.990033" lon="17.7382462">
        <ele>56.3745</ele>
        <time>2013-04-10T18:07:03Z</time>
      </trkpt>
      <trkpt lat="59.9900464" lon="17.7382423">
        <ele>56.3745</ele>
        <time>2013-04-10T18:07:04Z</time>
      </trkpt>
      <trkpt lat="59.9900602" lon="17.7382421">
        <ele>56.3745</ele>
        <time>2013-04-10T18:07:05Z</time>
      </trkpt>
      <trkpt lat="59.9900727" lon="17.7382402">
        <ele>55.8938</ele>
        <time>2013-04-10T18:07:06Z</time>
      </trkpt>
      <trkpt lat="59.9900888" lon="17.738238">
        <ele>55.8938</ele>
        <time>2013-04-10T18:07:07Z</time>
      </trkpt>
      <trkpt lat="59.9901083" lon="17.7382355">
        <ele>56.8551</ele>
        <time>2013-04-10T18:07:08Z</time>
      </trkpt>
      <trkpt lat="59.9901266" lon="17.7382318">
        <ele>56.8551</ele>
        <time>2013-04-10T18:07:09Z</time>
      </trkpt>
      <trkpt lat="59.9901433" lon="17.7382235">
        <ele>56.8551</ele>
        <time>2013-04-10T18:07:10Z</time>
      </trkpt>
      <trkpt lat="59.9901591" lon="17.7382106">
        <ele>57.3358</ele>
        <time>2013-04-10T18:07:11Z</time>
      </trkpt>
      <trkpt lat="59.9901681" lon="17.7382043">
        <ele>57.3358</ele>
        <time>2013-04-10T18:07:12Z</time>
      </trkpt>
      <trkpt lat="59.9901824" lon="17.7381935">
        <ele>57.3358</ele>
        <time>2013-04-10T18:07:13Z</time>
      </trkpt>
      <trkpt lat="59.9901974" lon="17.7381872">
        <ele>57.3358</ele>
        <time>2013-04-10T18:07:14Z</time>
      </trkpt>
      <trkpt lat="59.9902121" lon="17.7381932">
        <ele>57.3358</ele>
        <time>2013-04-10T18:07:15Z</time>
      </trkpt>
      <trkpt lat="59.9902256" lon="17.7381863">
        <ele>57.3358</ele>
        <time>2013-04-10T18:07:16Z</time>
      </trkpt>
      <trkpt lat="59.9902407" lon="17.7381836">
        <ele>57.8165</ele>
        <time>2013-04-10T18:07:17Z</time>
      </trkpt>
      <trkpt lat="59.9902587" lon="17.7381761">
        <ele>57.3358</ele>
        <time>2013-04-10T18:07:18Z</time>
      </trkpt>
      <trkpt lat="59.9902708" lon="17.7381681">
        <ele>56.3745</ele>
        <time>2013-04-10T18:07:19Z</time>
      </trkpt>
      <trkpt lat="59.9902837" lon="17.7381668">
        <ele>55.8938</ele>
        <time>2013-04-10T18:07:20Z</time>
      </trkpt>
      <trkpt lat="59.9902946" lon="17.7381608">
        <ele>55.8938</ele>
        <time>2013-04-10T18:07:21Z</time>
      </trkpt>
      <trkpt lat="59.9903094" lon="17.7381509">
        <ele>56.3745</ele>
        <time>2013-04-10T18:07:22Z</time>
      </trkpt>
      <trkpt lat="59.9903251" lon="17.7381397">
        <ele>55.8938</ele>
        <time>2013-04-10T18:07:23Z</time>
      </trkpt>
      <trkpt lat="59.9903391" lon="17.7381311">
        <ele>55.4131</ele>
        <time>2013-04-10T18:07:24Z</time>
      </trkpt>
      <trkpt lat="59.9903567" lon="17.7381297">
        <ele>55.8938</ele>
        <time>2013-04-10T18:07:25Z</time>
      </trkpt>
      <trkpt lat="59.9903717" lon="17.73813">
        <ele>55.8938</ele>
        <time>2013-04-10T18:07:26Z</time>
      </trkpt>
      <trkpt lat="59.9903856" lon="17.7381265">
        <ele>55.4131</ele>
        <time>2013-04-10T18:07:27Z</time>
      </trkpt>
      <trkpt lat="59.9904006" lon="17.7381121">
        <ele>55.8938</ele>
        <time>2013-04-10T18:07:28Z</time>
      </trkpt>
      <trkpt lat="59.9904145" lon="17.738095">
        <ele>55.8938</ele>
        <time>2013-04-10T18:07:29Z</time>
      </trkpt>
      <trkpt lat="59.9904248" lon="17.7380943">
        <ele>55.8938</ele>
        <time>2013-04-10T18:07:30Z</time>
      </trkpt>
      <trkpt lat="59.9904369" lon="17.7380922">
        <ele>55.8938</ele>
        <time>2013-04-10T18:07:31Z</time>
      </trkpt>
      <trkpt lat="59.9904541" lon="17.7380847">
        <ele>56.3745</ele>
        <time>2013-04-10T18:07:32Z</time>
      </trkpt>
      <trkpt lat="59.9904659" lon="17.7380795">
        <ele>55.8938</ele>
        <time>2013-04-10T18:07:33Z</time>
      </trkpt>
      <trkpt lat="59.990483" lon="17.738079">
        <ele>56.8551</ele>
        <time>2013-04-10T18:07:34Z</time>
      </trkpt>
      <trkpt lat="59.9905017" lon="17.7380773">
        <ele>56.3745</ele>
        <time>2013-04-10T18:07:35Z</time>
      </trkpt>
      <trkpt lat="59.9905176" lon="17.7380774">
        <ele>56.8551</ele>
        <time>2013-04-10T18:07:36Z</time>
      </trkpt>
      <trkpt lat="59.9905339" lon="17.7380684">
        <ele>56.3745</ele>
        <time>2013-04-10T18:07:37Z</time>
      </trkpt>
      <trkpt lat="59.9905491" lon="17.7380563">
        <ele>56.8551</ele>
        <time>2013-04-10T18:07:38Z</time>
      </trkpt>
      <trkpt lat="59.9905623" lon="17.7380472">
        <ele>56.3745</ele>
        <time>2013-04-10T18:07:39Z</time>
      </trkpt>
      <trkpt lat="59.9905771" lon="17.738043">
        <ele>55.8938</ele>
        <time>2013-04-10T18:07:40Z</time>
      </trkpt>
      <trkpt lat="59.9905928" lon="17.7380335">
        <ele>55.8938</ele>
        <time>2013-04-10T18:07:41Z</time>
      </trkpt>
      <trkpt lat="59.9906079" lon="17.7380299">
        <ele>55.8938</ele>
        <time>2013-04-10T18:07:42Z</time>
      </trkpt>
      <trkpt lat="59.9906182" lon="17.7380218">
        <ele>56.3745</ele>
        <time>2013-04-10T18:07:43Z</time>
      </trkpt>
      <trkpt lat="59.9906295" lon="17.738007">
        <ele>56.8551</ele>
        <time>2013-04-10T18:07:44Z</time>
      </trkpt>
      <trkpt lat="59.9906467" lon="17.7379962">
        <ele>57.8165</ele>
        <time>2013-04-10T18:07:45Z</time>
      </trkpt>
      <trkpt lat="59.9906617" lon="17.7379851">
        <ele>58.2971</ele>
        <time>2013-04-10T18:07:46Z</time>
      </trkpt>
      <trkpt lat="59.9906742" lon="17.7379687">
        <ele>58.7777</ele>
        <time>2013-04-10T18:07:47Z</time>
      </trkpt>
      <trkpt lat="59.9906892" lon="17.7379596">
        <ele>59.7391</ele>
        <time>2013-04-10T18:07:48Z</time>
      </trkpt>
      <trkpt lat="59.9907027" lon="17.7379576">
        <ele>60.7003</ele>
        <time>2013-04-10T18:07:49Z</time>
      </trkpt>
      <trkpt lat="59.990714" lon="17.7379464">
        <ele>60.2197</ele>
        <time>2013-04-10T18:07:50Z</time>
      </trkpt>
      <trkpt lat="59.9907338" lon="17.7379373">
        <ele>60.2197</ele>
        <time>2013-04-10T18:07:51Z</time>
      </trkpt>
      <trkpt lat="59.9907496" lon="17.7379197">
        <ele>59.7391</ele>
        <time>2013-04-10T18:07:52Z</time>
      </trkpt>
      <trkpt lat="59.9907737" lon="17.7378995">
        <ele>59.7391</ele>
        <time>2013-04-10T18:07:53Z</time>
      </trkpt>
      <trkpt lat="59.9907928" lon="17.7378972">
        <ele>59.2584</ele>
        <time>2013-04-10T18:07:54Z</time>
      </trkpt>
      <trkpt lat="59.9908077" lon="17.7378862">
        <ele>59.2584</ele>
        <time>2013-04-10T18:07:55Z</time>
      </trkpt>
      <trkpt lat="59.9908226" lon="17.7378744">
        <ele>59.2584</ele>
        <time>2013-04-10T18:07:56Z</time>
      </trkpt>
      <trkpt lat="59.9908378" lon="17.7378674">
        <ele>58.7777</ele>
        <time>2013-04-10T18:07:57Z</time>
      </trkpt>
      <trkpt lat="59.9908548" lon="17.7378543">
        <ele>58.7777</ele>
        <time>2013-04-10T18:07:58Z</time>
      </trkpt>
      <trkpt lat="59.9908735" lon="17.7378376">
        <ele>58.7777</ele>
        <time>2013-04-10T18:07:59Z</time>
      </trkpt>
      <trkpt lat="59.9908913" lon="17.7378235">
        <ele>58.7777</ele>
        <time>2013-04-10T18:08:00Z</time>
      </trkpt>
      <trkpt lat="59.9909076" lon="17.7378107">
        <ele>58.7777</ele>
        <time>2013-04-10T18:08:01Z</time>
      </trkpt>
      <trkpt lat="59.9909227" lon="17.7377981">
        <ele>58.7777</ele>
        <time>2013-04-10T18:08:02Z</time>
      </trkpt>
      <trkpt lat="59.9909416" lon="17.7377908">
        <ele>58.7777</ele>
        <time>2013-04-10T18:08:03Z</time>
      </trkpt>
      <trkpt lat="59.990958" lon="17.7377796">
        <ele>58.7777</ele>
        <time>2013-04-10T18:08:04Z</time>
      </trkpt>
      <trkpt lat="59.9909758" lon="17.7377624">
        <ele>58.2971</ele>
        <time>2013-04-10T18:08:05Z</time>
      </trkpt>
      <trkpt lat="59.9909886" lon="17.737746">
        <ele>57.3358</ele>
        <time>2013-04-10T18:08:06Z</time>
      </trkpt>
      <trkpt lat="59.9910022" lon="17.7377345">
        <ele>57.3358</ele>
        <time>2013-04-10T18:08:07Z</time>
      </trkpt>
      <trkpt lat="59.9910193" lon="17.7377246">
        <ele>57.8165</ele>
        <time>2013-04-10T18:08:08Z</time>
      </trkpt>
      <trkpt lat="59.9910363" lon="17.7377133">
        <ele>57.3358</ele>
        <time>2013-04-10T18:08:09Z</time>
      </trkpt>
      <trkpt lat="59.9910513" lon="17.7376958">
        <ele>57.8165</ele>
        <time>2013-04-10T18:08:10Z</time>
      </trkpt>
      <trkpt lat="59.9910679" lon="17.7376802">
        <ele>57.8165</ele>
        <time>2013-04-10T18:08:11Z</time>
      </trkpt>
      <trkpt lat="59.9910824" lon="17.7376667">
        <ele>58.2971</ele>
        <time>2013-04-10T18:08:12Z</time>
      </trkpt>
      <trkpt lat="59.9910964" lon="17.7376563">
        <ele>58.2971</ele>
        <time>2013-04-10T18:08:13Z</time>
      </trkpt>
      <trkpt lat="59.9911118" lon="17.7376392">
        <ele>58.2971</ele>
        <time>2013-04-10T18:08:14Z</time>
      </trkpt>
      <trkpt lat="59.9911249" lon="17.7376137">
        <ele>57.8165</ele>
        <time>2013-04-10T18:08:15Z</time>
      </trkpt>
      <trkpt lat="59.9911398" lon="17.7375893">
        <ele>57.3358</ele>
        <time>2013-04-10T18:08:16Z</time>
      </trkpt>
      <trkpt lat="59.9911543" lon="17.7375739">
        <ele>57.3358</ele>
        <time>2013-04-10T18:08:17Z</time>
      </trkpt>
      <trkpt lat="59.9911699" lon="17.7375659">
        <ele>57.3358</ele>
        <time>2013-04-10T18:08:18Z</time>
      </trkpt>
      <trkpt lat="59.9911852" lon="17.7375623">
        <ele>56.8551</ele>
        <time>2013-04-10T18:08:19Z</time>
      </trkpt>
      <trkpt lat="59.9912005" lon="17.7375584">
        <ele>56.8551</ele>
        <time>2013-04-10T18:08:20Z</time>
      </trkpt>
      <trkpt lat="59.9912184" lon="17.7375506">
        <ele>56.8551</ele>
        <time>2013-04-10T18:08:21Z</time>
      </trkpt>
      <trkpt lat="59.9912378" lon="17.7375455">
        <ele>56.8551</ele>
        <time>2013-04-10T18:08:22Z</time>
      </trkpt>
      <trkpt lat="59.9912573" lon="17.7375407">
        <ele>56.8551</ele>
        <time>2013-04-10T18:08:23Z</time>
      </trkpt>
      <trkpt lat="59.9912752" lon="17.7375469">
        <ele>56.8551</ele>
        <time>2013-04-10T18:08:24Z</time>
      </trkpt>
      <trkpt lat="59.991289" lon="17.7375551">
        <ele>56.3745</ele>
        <time>2013-04-10T18:08:25Z</time>
      </trkpt>
      <trkpt lat="59.9913015" lon="17.737549">
        <ele>56.8551</ele>
        <time>2013-04-10T18:08:26Z</time>
      </trkpt>
      <trkpt lat="59.991317" lon="17.7375497">
        <ele>56.8551</ele>
        <time>2013-04-10T18:08:27Z</time>
      </trkpt>
      <trkpt lat="59.9913321" lon="17.7375542">
        <ele>56.3745</ele>
        <time>2013-04-10T18:08:28Z</time>
      </trkpt>
      <trkpt lat="59.9913517" lon="17.7375525">
        <ele>56.3745</ele>
        <time>2013-04-10T18:08:29Z</time>
      </trkpt>
      <trkpt lat="59.9913704" lon="17.7375517">
        <ele>56.3745</ele>
        <time>2013-04-10T18:08:30Z</time>
      </trkpt>
      <trkpt lat="59.9913849" lon="17.7375563">
        <ele>56.3745</ele>
        <time>2013-04-10T18:08:31Z</time>
      </trkpt>
      <trkpt lat="59.9913967" lon="17.7375604">
        <ele>55.8938</ele>
        <time>2013-04-10T18:08:32Z</time>
      </trkpt>
      <trkpt lat="59.9914078" lon="17.737565">
        <ele>55.4131</ele>
        <time>2013-04-10T18:08:33Z</time>
      </trkpt>
      <trkpt lat="59.9914278" lon="17.7375717">
        <ele>56.3745</ele>
        <time>2013-04-10T18:08:34Z</time>
      </trkpt>
      <trkpt lat="59.9914455" lon="17.7375781">
        <ele>57.3358</ele>
        <time>2013-04-10T18:08:35Z</time>
      </trkpt>
      <trkpt lat="59.9914641" lon="17.7375801">
        <ele>58.2971</ele>
        <time>2013-04-10T18:08:36Z</time>
      </trkpt>
      <trkpt lat="59.9914812" lon="17.7375893">
        <ele>58.7777</ele>
        <time>2013-04-10T18:08:37Z</time>
      </trkpt>
      <trkpt lat="59.9914973" lon="17.7376001">
        <ele>59.2584</ele>
        <time>2013-04-10T18:08:38Z</time>
      </trkpt>
      <trkpt lat="59.991515" lon="17.7375961">
        <ele>59.2584</ele>
        <time>2013-04-10T18:08:39Z</time>
      </trkpt>
      <trkpt lat="59.9915295" lon="17.7375844">
        <ele>59.2584</ele>
        <time>2013-04-10T18:08:40Z</time>
      </trkpt>
      <trkpt lat="59.9915515" lon="17.7375789">
        <ele>60.2197</ele>
        <time>2013-04-10T18:08:41Z</time>
      </trkpt>
      <trkpt lat="59.9915767" lon="17.7375779">
        <ele>60.7003</ele>
        <time>2013-04-10T18:08:42Z</time>
      </trkpt>
      <trkpt lat="59.9915953" lon="17.737567">
        <ele>61.6617</ele>
        <time>2013-04-10T18:08:43Z</time>
      </trkpt>
      <trkpt lat="59.9916153" lon="17.7375559">
        <ele>61.6617</ele>
        <time>2013-04-10T18:08:44Z</time>
      </trkpt>
      <trkpt lat="59.9916299" lon="17.7375421">
        <ele>61.6617</ele>
        <time>2013-04-10T18:08:45Z</time>
      </trkpt>
      <trkpt lat="59.9916427" lon="17.7375374">
        <ele>61.181</ele>
        <time>2013-04-10T18:08:46Z</time>
      </trkpt>
      <trkpt lat="59.9916542" lon="17.7375378">
        <ele>61.181</ele>
        <time>2013-04-10T18:08:47Z</time>
      </trkpt>
      <trkpt lat="59.9916642" lon="17.7375378">
        <ele>60.7003</ele>
        <time>2013-04-10T18:08:48Z</time>
      </trkpt>
      <trkpt lat="59.9916784" lon="17.7375406">
        <ele>60.7003</ele>
        <time>2013-04-10T18:08:49Z</time>
      </trkpt>
      <trkpt lat="59.9916956" lon="17.7375439">
        <ele>60.2197</ele>
        <time>2013-04-10T18:08:50Z</time>
      </trkpt>
      <trkpt lat="59.9917071" lon="17.7375483">
        <ele>59.7391</ele>
        <time>2013-04-10T18:08:51Z</time>
      </trkpt>
      <trkpt lat="59.9917216" lon="17.7375533">
        <ele>59.7391</ele>
        <time>2013-04-10T18:08:52Z</time>
      </trkpt>
      <trkpt lat="59.9917376" lon="17.7375554">
        <ele>59.2584</ele>
        <time>2013-04-10T18:08:53Z</time>
      </trkpt>
      <trkpt lat="59.9917554" lon="17.7375547">
        <ele>59.2584</ele>
        <time>2013-04-10T18:08:54Z</time>
      </trkpt>
      <trkpt lat="59.9917663" lon="17.7375531">
        <ele>58.7777</ele>
        <time>2013-04-10T18:08:55Z</time>
      </trkpt>
      <trkpt lat="59.9917774" lon="17.737551">
        <ele>58.7777</ele>
        <time>2013-04-10T18:08:56Z</time>
      </trkpt>
      <trkpt lat="59.99179" lon="17.7375514">
        <ele>58.7777</ele>
        <time>2013-04-10T18:08:57Z</time>
      </trkpt>
      <trkpt lat="59.9918029" lon="17.7375521">
        <ele>58.7777</ele>
        <time>2013-04-10T18:08:58Z</time>
      </trkpt>
      <trkpt lat="59.9918128" lon="17.7375574">
        <ele>58.7777</ele>
        <time>2013-04-10T18:08:59Z</time>
      </trkpt>
      <trkpt lat="59.9918231" lon="17.7375577">
        <ele>57.8165</ele>
        <time>2013-04-10T18:09:00Z</time>
      </trkpt>
      <trkpt lat="59.9918392" lon="17.7375629">
        <ele>58.2971</ele>
        <time>2013-04-10T18:09:01Z</time>
      </trkpt>
      <trkpt lat="59.9918552" lon="17.7375636">
        <ele>57.8165</ele>
        <time>2013-04-10T18:09:02Z</time>
      </trkpt>
      <trkpt lat="59.9918713" lon="17.7375608">
        <ele>57.8165</ele>
        <time>2013-04-10T18:09:03Z</time>
      </trkpt>
      <trkpt lat="59.9918851" lon="17.7375614">
        <ele>57.3358</ele>
        <time>2013-04-10T18:09:04Z</time>
      </trkpt>
      <trkpt lat="59.9918999" lon="17.7375625">
        <ele>56.3745</ele>
        <time>2013-04-10T18:09:05Z</time>
      </trkpt>
      <trkpt lat="59.9919142" lon="17.7375597">
        <ele>56.3745</ele>
        <time>2013-04-10T18:09:06Z</time>
      </trkpt>
      <trkpt lat="59.9919276" lon="17.737561">
        <ele>56.3745</ele>
        <time>2013-04-10T18:09:07Z</time>
      </trkpt>
      <trkpt lat="59.9919402" lon="17.737564">
        <ele>56.3745</ele>
        <time>2013-04-10T18:09:08Z</time>
      </trkpt>
      <trkpt lat="59.9919514" lon="17.7375668">
        <ele>56.3745</ele>
        <time>2013-04-10T18:09:09Z</time>
      </trkpt>
      <trkpt lat="59.9919671" lon="17.7375652">
        <ele>56.3745</ele>
        <time>2013-04-10T18:09:10Z</time>
      </trkpt>
      <trkpt lat="59.9919809" lon="17.7375646">
        <ele>55.8938</ele>
        <time>2013-04-10T18:09:11Z</time>
      </trkpt>
      <trkpt lat="59.9919965" lon="17.737568">
        <ele>55.8938</ele>
        <time>2013-04-10T18:09:12Z</time>
      </trkpt>
      <trkpt lat="59.9920133" lon="17.7375635">
        <ele>55.8938</ele>
        <time>2013-04-10T18:09:13Z</time>
      </trkpt>
      <trkpt lat="59.9920302" lon="17.7375564">
        <ele>55.8938</ele>
        <time>2013-04-10T18:09:14Z</time>
      </trkpt>
      <trkpt lat="59.9920407" lon="17.7375411">
        <ele>55.8938</ele>
        <time>2013-04-10T18:09:15Z</time>
      </trkpt>
      <trkpt lat="59.9920495" lon="17.7375366">
        <ele>55.4131</ele>
        <time>2013-04-10T18:09:16Z</time>
      </trkpt>
      <trkpt lat="59.9920622" lon="17.7375268">
        <ele>55.4131</ele>
        <time>2013-04-10T18:09:17Z</time>
      </trkpt>
      <trkpt lat="59.9920753" lon="17.7375133">
        <ele>54.9324</ele>
        <time>2013-04-10T18:09:18Z</time>
      </trkpt>
      <trkpt lat="59.9920868" lon="17.7375027">
        <ele>54.4518</ele>
        <time>2013-04-10T18:09:19Z</time>
      </trkpt>
      <trkpt lat="59.9920956" lon="17.7374917">
        <ele>54.4518</ele>
        <time>2013-04-10T18:09:20Z</time>
      </trkpt>
      <trkpt lat="59.9921053" lon="17.7374802">
        <ele>54.9324</ele>
        <time>2013-04-10T18:09:21Z</time>
      </trkpt>
      <trkpt lat="59.9921161" lon="17.7374722">
        <ele>54.9324</ele>
        <time>2013-04-10T18:09:22Z</time>
      </trkpt>
      <trkpt lat="59.9921303" lon="17.7374688">
        <ele>54.4518</ele>
        <time>2013-04-10T18:09:23Z</time>
      </trkpt>
      <trkpt lat="59.9921464" lon="17.7374703">
        <ele>54.9324</ele>
        <time>2013-04-10T18:09:24Z</time>
      </trkpt>
      <trkpt lat="59.992161" lon="17.7374682">
        <ele>54.9324</ele>
        <time>2013-04-10T18:09:25Z</time>
      </trkpt>
      <trkpt lat="59.9921754" lon="17.7374628">
        <ele>54.9324</ele>
        <time>2013-04-10T18:09:26Z</time>
      </trkpt>
      <trkpt lat="59.9921925" lon="17.7374597">
        <ele>55.4131</ele>
        <time>2013-04-10T18:09:27Z</time>
      </trkpt>
    </trkseg>
  </trk>
</gpx>